Wetterdaten: Freitag, 21.01.2022
Datum Zeit Temp. Aussen Temp. o. S. Temp +5cm Feuchte Auss Luftdruck Regen Sonnenschein Regendauer Solar Windben Empfang
21.01.2022 00:00 0,1 C -0,6 C -2,2 C 96 % 1032,5 hPa 0,0 l/m 0 min 0 min 0 W/m 12,9 km/h (3 Bft) 91,30 %
21.01.2022 00:02 0,1 C -0,6 C -2,2 C 96 % 1032,5 hPa 0,0 l/m 0 min 0 min 0 W/m 6,4 km/h (2 Bft) 93,02 %
21.01.2022 00:04 0,1 C -0,6 C -2,2 C 96 % 1032,5 hPa 0,0 l/m 0 min 0 min 0 W/m 12,9 km/h (3 Bft) 92,11 %
21.01.2022 00:08 0,2 C -0,6 C -2,2 C 96 % 1032,6 hPa 0,0 l/m 0 min 0 min 0 W/m 6,4 km/h (2 Bft) 93,62 %
21.01.2022 00:10 0,2 C -0,6 C -2,2 C 96 % 1032,6 hPa 0,0 l/m 0 min 0 min 0 W/m 6,4 km/h (2 Bft) 94,34 %
21.01.2022 00:12 0,1 C -0,6 C -2,2 C 96 % 1032,7 hPa 0,0 l/m 0 min 0 min 0 W/m 9,7 km/h (2 Bft) 95,92 %
21.01.2022 00:14 0,1 C -0,6 C -2,2 C 96 % 1032,7 hPa 0,0 l/m 0 min 0 min 0 W/m 6,4 km/h (2 Bft) 97,92 %
21.01.2022 00:16 0,1 C -0,6 C -2,2 C 96 % 1032,7 hPa 0,0 l/m 0 min 0 min 0 W/m 6,4 km/h (2 Bft) 93,62 %
21.01.2022 00:18 0,1 C -0,6 C -2,2 C 96 % 1032,7 hPa 0,0 l/m 0 min 0 min 0 W/m 6,4 km/h (2 Bft) 97,92 %
21.01.2022 00:20 0,1 C -0,6 C -2,2 C 96 % 1032,7 hPa 0,0 l/m 0 min 0 min 0 W/m 6,4 km/h (2 Bft) 97,83 %
21.01.2022 00:22 0,1 C -0,6 C -2,2 C 96 % 1032,7 hPa 0,0 l/m 0 min 0 min 0 W/m 3,2 km/h (1 Bft) 97,92 %
21.01.2022 00:24 0,1 C -0,6 C -2,2 C 96 % 1032,8 hPa 0,0 l/m 0 min 0 min 0 W/m 6,4 km/h (2 Bft) 97,87 %
21.01.2022 00:26 0,1 C -0,6 C -2,2 C 96 % 1032,8 hPa 0,0 l/m 0 min 0 min 0 W/m 6,4 km/h (2 Bft) 95,74 %
21.01.2022 00:28 0,1 C -0,6 C -2,2 C 96 % 1032,9 hPa 0,0 l/m 0 min 0 min 0 W/m 6,4 km/h (2 Bft) 97,87 %
21.01.2022 00:30 0,1 C -0,6 C -1,7 C 96 % 1032,9 hPa 0,0 l/m 0 min 0 min 0 W/m 3,2 km/h (1 Bft) 97,87 %
21.01.2022 00:32 0,1 C -0,6 C -1,7 C 96 % 1032,9 hPa 0,0 l/m 0 min 0 min 0 W/m 3,2 km/h (1 Bft) 97,14 %
21.01.2022 00:34 0,1 C -0,6 C -1,7 C 96 % 1032,9 hPa 0,0 l/m 0 min 0 min 0 W/m 6,4 km/h (2 Bft) 97,87 %
21.01.2022 00:36 0,1 C -0,6 C -1,7 C 96 % 1033,1 hPa 0,0 l/m 0 min 0 min 0 W/m 6,4 km/h (2 Bft) 95,65 %
21.01.2022 00:38 0,1 C -0,6 C -1,7 C 96 % 1033,1 hPa 0,0 l/m 0 min 0 min 0 W/m 9,7 km/h (2 Bft) 95,74 %
21.01.2022 00:40 0,1 C -0,6 C -1,7 C 96 % 1033,1 hPa 0,0 l/m 0 min 0 min 0 W/m 6,4 km/h (2 Bft) 100,00 %
21.01.2022 00:42 0,1 C -0,6 C -1,7 C 96 % 1033,1 hPa 0,0 l/m 0 min 0 min 0 W/m 6,4 km/h (2 Bft) 98,15 %
21.01.2022 00:44 0,1 C -0,6 C -1,7 C 96 % 1033,1 hPa 0,0 l/m 0 min 0 min 0 W/m 9,7 km/h (2 Bft) 100,00 %
21.01.2022 00:46 0,1 C -0,6 C -1,7 C 96 % 1033,1 hPa 0,0 l/m 0 min 0 min 0 W/m 9,7 km/h (2 Bft) 100,00 %
21.01.2022 00:48 0,1 C -0,6 C -1,7 C 96 % 1033,1 hPa 0,0 l/m 0 min 0 min 0 W/m 9,7 km/h (2 Bft) 100,00 %
21.01.2022 00:50 0,1 C -0,6 C -1,7 C 96 % 1033,1 hPa 0,0 l/m 0 min 0 min 0 W/m 3,2 km/h (1 Bft) 97,87 %
21.01.2022 00:52 0,1 C -0,6 C -1,7 C 96 % 1033,1 hPa 0,0 l/m 0 min 0 min 0 W/m 6,4 km/h (2 Bft) 100,00 %
21.01.2022 00:54 0,1 C -0,6 C -1,7 C 96 % 1033,1 hPa 0,0 l/m 0 min 0 min 0 W/m 6,4 km/h (2 Bft) 100,00 %
21.01.2022 00:56 0,2 C -0,6 C -1,7 C 96 % 1033,0 hPa 0,0 l/m 0 min 0 min 0 W/m 6,4 km/h (2 Bft) 97,92 %
21.01.2022 00:58 0,2 C -0,6 C -1,7 C 96 % 1033,1 hPa 0,0 l/m 0 min 0 min 0 W/m 6,4 km/h (2 Bft) 100,00 %
21.01.2022 01:00 0,2 C 0,0 C -1,7 C 96 % 1033,1 hPa 0,0 l/m 0 min 0 min 0 W/m 9,7 km/h (2 Bft) 100,00 %
21.01.2022 01:02 0,2 C 0,0 C -1,7 C 96 % 1033,0 hPa 0,0 l/m 0 min 0 min 0 W/m 9,7 km/h (2 Bft) 100,00 %
21.01.2022 01:04 0,2 C 0,0 C -1,7 C 96 % 1032,9 hPa 0,0 l/m 0 min 0 min 0 W/m 6,4 km/h (2 Bft) 100,00 %
21.01.2022 01:06 0,2 C -0,6 C -1,7 C 96 % 1033,1 hPa 0,0 l/m 0 min 0 min 0 W/m 9,7 km/h (2 Bft) 100,00 %
21.01.2022 01:08 0,2 C -0,6 C -1,7 C 96 % 1033,1 hPa 0,0 l/m 0 min 0 min 0 W/m 6,4 km/h (2 Bft) 100,00 %
21.01.2022 01:10 0,2 C -0,6 C -1,7 C 96 % 1033,1 hPa 0,0 l/m 0 min 0 min 0 W/m 9,7 km/h (2 Bft) 100,00 %
21.01.2022 01:12 0,2 C -0,6 C -1,7 C 96 % 1033,1 hPa 0,0 l/m 0 min 0 min 0 W/m 3,2 km/h (1 Bft) 97,96 %
21.01.2022 01:14 0,2 C -0,6 C -1,7 C 96 % 1033,0 hPa 0,0 l/m 0 min 0 min 0 W/m 9,7 km/h (2 Bft) 100,00 %
21.01.2022 01:16 0,2 C -0,6 C -1,7 C 96 % 1033,0 hPa 0,0 l/m 0 min 0 min 0 W/m 9,7 km/h (2 Bft) 100,00 %
21.01.2022 01:18 0,2 C -0,6 C -1,7 C 96 % 1033,1 hPa 0,0 l/m 0 min 0 min 0 W/m 9,7 km/h (2 Bft) 97,87 %
21.01.2022 01:20 0,2 C -0,6 C -1,7 C 96 % 1033,0 hPa 0,0 l/m 0 min 0 min 0 W/m 6,4 km/h (2 Bft) 97,83 %
21.01.2022 01:22 0,2 C -0,6 C -1,7 C 96 % 1033,0 hPa 0,0 l/m 0 min 0 min 0 W/m 6,4 km/h (2 Bft) 95,74 %
21.01.2022 01:24 0,2 C -0,6 C -1,7 C 96 % 1033,1 hPa 0,0 l/m 0 min 0 min 0 W/m 6,4 km/h (2 Bft) 100,00 %
21.01.2022 01:26 0,2 C -0,6 C -1,7 C 96 % 1033,1 hPa 0,0 l/m 0 min 0 min 0 W/m 3,2 km/h (1 Bft) 97,87 %
21.01.2022 01:28 0,1 C -0,6 C -1,7 C 96 % 1033,2 hPa 0,0 l/m 0 min 0 min 0 W/m 12,9 km/h (3 Bft) 95,74 %
21.01.2022 01:30 0,1 C -0,6 C -1,7 C 96 % 1033,2 hPa 0,0 l/m 0 min 0 min 0 W/m 9,7 km/h (2 Bft) 97,87 %
21.01.2022 01:32 0,1 C -0,6 C -1,7 C 96 % 1033,2 hPa 0,0 l/m 0 min 0 min 0 W/m 9,7 km/h (2 Bft) 97,83 %
21.01.2022 01:34 0,1 C -0,6 C -1,7 C 96 % 1033,2 hPa 0,0 l/m 0 min 0 min 0 W/m 6,4 km/h (2 Bft) 97,14 %
21.01.2022 01:36 0,1 C -0,6 C -1,7 C 96 % 1033,2 hPa 0,0 l/m 0 min 0 min 0 W/m 3,2 km/h (1 Bft) 98,15 %
21.01.2022 01:38 0,1 C -0,6 C -1,7 C 96 % 1033,1 hPa 0,0 l/m 0 min 0 min 0 W/m 6,4 km/h (2 Bft) 95,83 %
21.01.2022 01:40 0,1 C -0,6 C -1,7 C 96 % 1033,1 hPa 0,0 l/m 0 min 0 min 0 W/m 3,2 km/h (1 Bft) 97,92 %
21.01.2022 01:42 0,1 C -0,6 C -2,2 C 96 % 1033,1 hPa 0,0 l/m 0 min 0 min 0 W/m 3,2 km/h (1 Bft) 97,83 %
21.01.2022 01:44 0,1 C -0,6 C -1,7 C 96 % 1033,2 hPa 0,0 l/m 0 min 0 min 0 W/m 3,2 km/h (1 Bft) 97,92 %
21.01.2022 01:46 0,1 C -0,6 C -1,7 C 96 % 1033,2 hPa 0,0 l/m 0 min 0 min 0 W/m 3,2 km/h (1 Bft) 97,92 %
21.01.2022 01:48 0,1 C -0,6 C -2,2 C 96 % 1033,2 hPa 0,0 l/m 0 min 0 min 0 W/m 9,7 km/h (2 Bft) 97,87 %
21.01.2022 01:50 0,1 C -0,6 C -1,7 C 96 % 1033,2 hPa 0,0 l/m 0 min 0 min 0 W/m 6,4 km/h (2 Bft) 97,92 %
21.01.2022 01:52 0,1 C -0,6 C -2,2 C 96 % 1033,2 hPa 0,0 l/m 0 min 0 min 0 W/m 9,7 km/h (2 Bft) 97,83 %
21.01.2022 01:54 0,0 C -1,1 C -2,2 C 96 % 1033,2 hPa 0,0 l/m 0 min 0 min 0 W/m 3,2 km/h (1 Bft) 97,87 %
21.01.2022 01:56 0,0 C -1,1 C -2,2 C 96 % 1033,2 hPa 0,0 l/m 0 min 0 min 0 W/m 12,9 km/h (3 Bft) 95,74 %
21.01.2022 01:58 0,0 C -1,1 C -2,2 C 96 % 1033,2 hPa 0,0 l/m 0 min 0 min 0 W/m 6,4 km/h (2 Bft) 97,96 %
21.01.2022 02:00 0,0 C -1,1 C -2,2 C 96 % 1033,3 hPa 0,0 l/m 0 min 0 min 0 W/m 6,4 km/h (2 Bft) 93,75 %
21.01.2022 02:02 0,0 C -0,6 C -2,2 C 96 % 1033,4 hPa 0,0 l/m 0 min 0 min 0 W/m 9,7 km/h (2 Bft) 100,00 %
21.01.2022 02:04 0,0 C -0,6 C -2,2 C 96 % 1033,4 hPa 0,0 l/m 0 min 0 min 0 W/m 6,4 km/h (2 Bft) 100,00 %
21.01.2022 02:06 0,0 C -0,6 C -1,7 C 96 % 1033,4 hPa 0,0 l/m 0 min 0 min 0 W/m 6,4 km/h (2 Bft) 100,00 %
21.01.2022 02:08 0,1 C -0,6 C -1,7 C 96 % 1033,3 hPa 0,0 l/m 0 min 0 min 0 W/m 6,4 km/h (2 Bft) 97,92 %
21.01.2022 02:10 0,1 C -0,6 C -1,7 C 96 % 1033,3 hPa 0,0 l/m 0 min 0 min 0 W/m 6,4 km/h (2 Bft) 97,87 %
21.01.2022 02:12 0,1 C -0,6 C -1,7 C 96 % 1033,3 hPa 0,0 l/m 0 min 0 min 0 W/m 6,4 km/h (2 Bft) 100,00 %
21.01.2022 02:14 0,1 C -0,6 C -1,7 C 96 % 1033,3 hPa 0,0 l/m 0 min 0 min 0 W/m 6,4 km/h (2 Bft) 97,87 %
21.01.2022 02:16 0,1 C -0,6 C -1,7 C 96 % 1033,3 hPa 0,0 l/m 0 min 0 min 0 W/m 6,4 km/h (2 Bft) 97,87 %
21.01.2022 02:18 0,1 C -0,6 C -1,7 C 96 % 1033,3 hPa 0,0 l/m 0 min 0 min 0 W/m 6,4 km/h (2 Bft) 97,87 %
21.01.2022 02:20 0,1 C -0,6 C -1,7 C 96 % 1033,2 hPa 0,0 l/m 0 min 0 min 0 W/m 3,2 km/h (1 Bft) 97,83 %
21.01.2022 02:22 0,1 C -0,6 C -1,7 C 96 % 1033,1 hPa 0,0 l/m 0 min 0 min 0 W/m 12,9 km/h (3 Bft) 97,87 %
21.01.2022 02:24 0,1 C -0,6 C -1,7 C 96 % 1033,1 hPa 0,0 l/m 0 min 0 min 0 W/m 9,7 km/h (2 Bft) 97,87 %
21.01.2022 02:26 0,1 C -0,6 C -1,7 C 97 % 1033,1 hPa 0,0 l/m 0 min 0 min 0 W/m 9,7 km/h (2 Bft) 97,87 %
21.01.2022 02:28 0,2 C -0,6 C -1,7 C 97 % 1033,1 hPa 0,0 l/m 0 min 0 min 0 W/m 9,7 km/h (2 Bft) 97,87 %
21.01.2022 02:30 0,2 C -0,6 C -1,7 C 97 % 1033,0 hPa 0,0 l/m 0 min 0 min 0 W/m 6,4 km/h (2 Bft) 98,11 %
21.01.2022 02:32 0,2 C -0,6 C -1,7 C 97 % 1033,1 hPa 0,0 l/m 0 min 0 min 0 W/m 6,4 km/h (2 Bft) 95,92 %
21.01.2022 02:34 0,2 C -0,6 C -1,7 C 97 % 1033,1 hPa 0,0 l/m 0 min 0 min 0 W/m 9,7 km/h (2 Bft) 97,92 %
21.01.2022 02:36 0,2 C -0,6 C -1,7 C 97 % 1033,1 hPa 0,0 l/m 0 min 0 min 0 W/m 9,7 km/h (2 Bft) 95,74 %
21.01.2022 02:38 0,2 C -0,6 C -1,7 C 97 % 1033,1 hPa 0,0 l/m 0 min 0 min 0 W/m 3,2 km/h (1 Bft) 97,22 %
21.01.2022 02:40 0,2 C -0,6 C -1,7 C 97 % 1033,1 hPa 0,0 l/m 0 min 0 min 0 W/m 3,2 km/h (1 Bft) 93,62 %
21.01.2022 02:42 0,2 C -0,6 C -1,7 C 97 % 1033,2 hPa 0,0 l/m 0 min 0 min 0 W/m 6,4 km/h (2 Bft) 95,74 %
21.01.2022 02:44 0,1 C -0,6 C -1,7 C 97 % 1033,2 hPa 0,0 l/m 0 min 0 min 0 W/m 6,4 km/h (2 Bft) 95,74 %
21.01.2022 02:46 0,1 C -0,6 C -1,7 C 97 % 1033,3 hPa 0,0 l/m 0 min 0 min 0 W/m 3,2 km/h (1 Bft) 93,62 %
21.01.2022 02:48 0,1 C -0,6 C -1,7 C 96 % 1033,3 hPa 0,0 l/m 0 min 0 min 0 W/m 6,4 km/h (2 Bft) 95,74 %
21.01.2022 02:50 0,1 C -0,6 C -1,7 C 96 % 1033,3 hPa 0,0 l/m 0 min 0 min 0 W/m 3,2 km/h (1 Bft) 95,74 %
21.01.2022 02:52 0,1 C -0,6 C -1,7 C 96 % 1033,2 hPa 0,0 l/m 0 min 0 min 0 W/m 6,4 km/h (2 Bft) 97,87 %
21.01.2022 02:54 0,1 C -0,6 C -1,7 C 96 % 1033,2 hPa 0,0 l/m 0 min 0 min 0 W/m 6,4 km/h (2 Bft) 97,83 %
21.01.2022 02:56 0,1 C -0,6 C -1,7 C 96 % 1033,2 hPa 0,0 l/m 0 min 0 min 0 W/m 3,2 km/h (1 Bft) 95,74 %
21.01.2022 02:58 0,1 C -0,6 C -1,7 C 96 % 1033,1 hPa 0,0 l/m 0 min 0 min 0 W/m 6,4 km/h (2 Bft) 98,00 %
21.01.2022 03:00 0,1 C -0,6 C -1,7 C 96 % 1033,2 hPa 0,0 l/m 0 min 0 min 0 W/m 12,9 km/h (3 Bft) 95,74 %
21.01.2022 03:02 0,1 C -0,6 C -1,7 C 96 % 1033,2 hPa 0,0 l/m 0 min 0 min 0 W/m 9,7 km/h (2 Bft) 97,87 %
21.01.2022 03:04 0,1 C -0,6 C -1,7 C 96 % 1033,2 hPa 0,0 l/m 0 min 0 min 0 W/m 9,7 km/h (2 Bft) 97,92 %
21.01.2022 03:06 0,0 C -0,6 C -1,7 C 96 % 1033,2 hPa 0,0 l/m 0 min 0 min 0 W/m 9,7 km/h (2 Bft) 97,92 %
21.01.2022 03:08 0,0 C -0,6 C -1,7 C 96 % 1033,2 hPa 0,0 l/m 0 min 0 min 0 W/m 9,7 km/h (2 Bft) 95,74 %
21.01.2022 03:10 0,0 C -0,6 C -1,7 C 96 % 1033,2 hPa 0,0 l/m 0 min 0 min 0 W/m 6,4 km/h (2 Bft) 95,74 %
21.01.2022 03:12 0,0 C -0,6 C -1,7 C 96 % 1033,2 hPa 0,0 l/m 0 min 0 min 0 W/m 9,7 km/h (2 Bft) 97,14 %
21.01.2022 03:14 0,0 C -0,6 C -1,7 C 96 % 1033,2 hPa 0,0 l/m 0 min 0 min 0 W/m 6,4 km/h (2 Bft) 95,74 %
21.01.2022 03:16 0,0 C -0,6 C -1,7 C 96 % 1033,0 hPa 0,0 l/m 0 min 0 min 0 W/m 6,4 km/h (2 Bft) 97,87 %
21.01.2022 03:18 0,0 C -0,6 C -1,7 C 96 % 1033,1 hPa 0,0 l/m 0 min 0 min 0 W/m 6,4 km/h (2 Bft) 95,74 %
21.01.2022 03:20 0,0 C -0,6 C -1,7 C 96 % 1033,2 hPa 0,0 l/m 0 min 0 min 0 W/m 6,4 km/h (2 Bft) 95,65 %
21.01.2022 03:22 0,0 C -0,6 C -1,7 C 96 % 1033,2 hPa 0,0 l/m 0 min 0 min 0 W/m 6,4 km/h (2 Bft) 96,30 %
21.01.2022 03:24 0,0 C -0,6 C -1,7 C 96 % 1033,2 hPa 0,0 l/m 0 min 0 min 0 W/m 6,4 km/h (2 Bft) 93,75 %
21.01.2022 03:26 0,0 C -0,6 C -1,7 C 96 % 1033,1 hPa 0,0 l/m 0 min 0 min 0 W/m 3,2 km/h (1 Bft) 53,19 %
21.01.2022 03:28 0,1 C -0,6 C -1,7 C 96 % 1033,0 hPa 0,0 l/m 0 min 0 min 0 W/m 3,2 km/h (1 Bft) 94,87 %
21.01.2022 03:30 0,1 C -0,6 C -1,7 C 96 % 1033,1 hPa 0,0 l/m 0 min 0 min 0 W/m 6,4 km/h (2 Bft) 93,62 %
21.01.2022 03:32 0,1 C -0,6 C -1,7 C 96 % 1033,2 hPa 0,0 l/m 0 min 0 min 0 W/m 6,4 km/h (2 Bft) 97,92 %
21.01.2022 03:34 0,1 C -0,6 C -1,7 C 96 % 1033,2 hPa 0,0 l/m 0 min 0 min 0 W/m 9,7 km/h (2 Bft) 95,74 %
21.01.2022 03:36 0,2 C 0,0 C -1,7 C 96 % 1033,2 hPa 0,0 l/m 0 min 0 min 0 W/m 6,4 km/h (2 Bft) 95,74 %
21.01.2022 03:38 0,2 C 0,0 C -1,7 C 97 % 1033,2 hPa 0,0 l/m 0 min 0 min 0 W/m 6,4 km/h (2 Bft) 97,87 %
21.01.2022 03:40 0,2 C 0,0 C -1,7 C 97 % 1033,2 hPa 0,0 l/m 0 min 0 min 0 W/m 6,4 km/h (2 Bft) 97,83 %
21.01.2022 03:42 0,2 C 0,0 C -1,7 C 97 % 1033,2 hPa 0,0 l/m 0 min 0 min 0 W/m 6,4 km/h (2 Bft) 97,87 %
21.01.2022 03:44 0,2 C 0,0 C -1,7 C 97 % 1033,2 hPa 0,0 l/m 0 min 0 min 0 W/m 9,7 km/h (2 Bft) 95,74 %
21.01.2022 03:46 0,2 C 0,0 C -1,7 C 97 % 1033,2 hPa 0,0 l/m 0 min 0 min 0 W/m 9,7 km/h (2 Bft) 100,00 %
21.01.2022 03:48 0,3 C 0,0 C -1,7 C 97 % 1033,3 hPa 0,0 l/m 0 min 0 min 0 W/m 6,4 km/h (2 Bft) 100,00 %
21.01.2022 03:50 0,3 C 0,0 C -1,1 C 97 % 1033,3 hPa 0,0 l/m 0 min 0 min 0 W/m 6,4 km/h (2 Bft) 97,83 %
21.01.2022 03:52 0,3 C 0,0 C -1,1 C 97 % 1033,3 hPa 0,0 l/m 0 min 0 min 0 W/m 6,4 km/h (2 Bft) 97,87 %
21.01.2022 03:54 0,3 C 0,0 C -1,1 C 97 % 1033,3 hPa 0,0 l/m 0 min 0 min 0 W/m 6,4 km/h (2 Bft) 100,00 %
21.01.2022 03:56 0,4 C 0,0 C -1,1 C 97 % 1033,3 hPa 0,0 l/m 0 min 0 min 0 W/m 6,4 km/h (2 Bft) 97,87 %
21.01.2022 03:58 0,4 C 0,0 C -1,1 C 97 % 1033,3 hPa 0,0 l/m 0 min 0 min 0 W/m 6,4 km/h (2 Bft) 98,00 %
21.01.2022 04:00 0,4 C 0,0 C -1,1 C 97 % 1033,4 hPa 0,0 l/m 0 min 0 min 0 W/m 6,4 km/h (2 Bft) 100,00 %
21.01.2022 04:05 0,3 C -0,6 C -1,1 C 97 % 1033,4 hPa 0,0 l/m 0 min 0 min 0 W/m 6,4 km/h (2 Bft) 98,53 %
21.01.2022 04:06 0,3 C -0,6 C -1,1 C 97 % 1033,4 hPa 0,0 l/m 0 min 0 min 0 W/m 6,4 km/h (2 Bft) 100,00 %
21.01.2022 04:08 0,3 C -0,6 C -1,1 C 97 % 1033,4 hPa 0,0 l/m 0 min 0 min 0 W/m 6,4 km/h (2 Bft) 97,87 %
21.01.2022 04:10 0,3 C -0,6 C -1,7 C 97 % 1033,4 hPa 0,0 l/m 0 min 0 min 0 W/m 3,2 km/h (1 Bft) 47,37 %
21.01.2022 04:12 0,3 C -0,6 C -1,7 C 97 % 1033,5 hPa 0,0 l/m 0 min 0 min 0 W/m 6,4 km/h (2 Bft) 100,00 %
21.01.2022 04:14 0,3 C -0,6 C -1,7 C 97 % 1033,4 hPa 0,0 l/m 0 min 0 min 0 W/m 12,9 km/h (3 Bft) 100,00 %
21.01.2022 04:16 0,2 C -0,6 C -1,7 C 97 % 1033,4 hPa 0,0 l/m 0 min 0 min 0 W/m 6,4 km/h (2 Bft) 100,00 %
21.01.2022 04:18 0,2 C -0,6 C -1,7 C 97 % 1033,5 hPa 0,0 l/m 0 min 0 min 0 W/m 6,4 km/h (2 Bft) 97,87 %
21.01.2022 04:20 0,2 C -0,6 C -1,7 C 97 % 1033,5 hPa 0,0 l/m 0 min 0 min 0 W/m 9,7 km/h (2 Bft) 100,00 %
21.01.2022 04:22 0,2 C -0,6 C -1,7 C 97 % 1033,6 hPa 0,0 l/m 0 min 0 min 0 W/m 6,4 km/h (2 Bft) 100,00 %
21.01.2022 04:24 0,2 C -0,6 C -1,7 C 97 % 1033,5 hPa 0,0 l/m 0 min 0 min 0 W/m 6,4 km/h (2 Bft) 100,00 %
21.01.2022 04:26 0,2 C -0,6 C -1,7 C 97 % 1033,5 hPa 0,0 l/m 0 min 0 min 0 W/m 9,7 km/h (2 Bft) 98,11 %
21.01.2022 04:28 0,2 C -0,6 C -1,7 C 97 % 1033,5 hPa 0,0 l/m 0 min 0 min 0 W/m 6,4 km/h (2 Bft) 97,92 %
21.01.2022 04:30 0,2 C -0,6 C -1,7 C 97 % 1033,4 hPa 0,0 l/m 0 min 0 min 0 W/m 9,7 km/h (2 Bft) 97,92 %
21.01.2022 04:32 0,2 C -0,6 C -1,7 C 97 % 1033,4 hPa 0,0 l/m 0 min 0 min 0 W/m 9,7 km/h (2 Bft) 97,92 %
21.01.2022 04:34 0,2 C -0,6 C -1,7 C 97 % 1033,4 hPa 0,0 l/m 0 min 0 min 0 W/m 6,4 km/h (2 Bft) 97,83 %
21.01.2022 04:36 0,2 C -0,6 C -1,7 C 97 % 1033,3 hPa 0,0 l/m 0 min 0 min 0 W/m 9,7 km/h (2 Bft) 97,87 %
21.01.2022 04:38 0,1 C -0,6 C -1,7 C 97 % 1033,3 hPa 0,0 l/m 0 min 0 min 0 W/m 9,7 km/h (2 Bft) 97,87 %
21.01.2022 04:40 0,1 C -0,6 C -1,7 C 97 % 1033,4 hPa 0,0 l/m 0 min 0 min 0 W/m 9,7 km/h (2 Bft) 97,87 %
21.01.2022 04:42 0,1 C -0,6 C -1,7 C 97 % 1033,4 hPa 0,0 l/m 0 min 0 min 0 W/m 12,9 km/h (3 Bft) 97,87 %
21.01.2022 04:44 0,1 C -0,6 C -1,7 C 97 % 1033,4 hPa 0,0 l/m 0 min 0 min 0 W/m 6,4 km/h (2 Bft) 97,83 %
21.01.2022 04:46 0,1 C -0,6 C -1,7 C 97 % 1033,4 hPa 0,0 l/m 0 min 0 min 0 W/m 9,7 km/h (2 Bft) 95,74 %
21.01.2022 04:48 0,1 C -0,6 C -1,7 C 97 % 1033,4 hPa 0,0 l/m 0 min 0 min 0 W/m 6,4 km/h (2 Bft) 100,00 %
21.01.2022 04:50 0,1 C -0,6 C -1,7 C 97 % 1033,4 hPa 0,0 l/m 0 min 0 min 0 W/m 9,7 km/h (2 Bft) 97,83 %
21.01.2022 04:52 0,2 C 0,0 C -1,7 C 97 % 1033,4 hPa 0,0 l/m 0 min 0 min 0 W/m 12,9 km/h (3 Bft) 96,30 %
21.01.2022 04:54 0,2 C 0,0 C -1,1 C 97 % 1033,3 hPa 0,0 l/m 0 min 0 min 0 W/m 9,7 km/h (2 Bft) 94,00 %
21.01.2022 04:56 0,2 C 0,0 C -1,1 C 97 % 1033,3 hPa 0,0 l/m 0 min 0 min 0 W/m 9,7 km/h (2 Bft) 97,30 %
21.01.2022 04:58 0,3 C 0,0 C -1,1 C 97 % 1033,3 hPa 0,0 l/m 0 min 0 min 0 W/m 9,7 km/h (2 Bft) 96,00 %
21.01.2022 05:00 0,3 C 0,0 C -1,1 C 97 % 1033,3 hPa 0,0 l/m 0 min 0 min 0 W/m 12,9 km/h (3 Bft) 97,83 %
21.01.2022 05:02 0,3 C 0,0 C -1,1 C 97 % 1033,3 hPa 0,0 l/m 0 min 0 min 0 W/m 9,7 km/h (2 Bft) 100,00 %
21.01.2022 05:04 0,4 C 0,0 C -1,1 C 97 % 1033,4 hPa 0,0 l/m 0 min 0 min 0 W/m 6,4 km/h (2 Bft) 95,92 %
21.01.2022 05:06 0,4 C 0,0 C -1,1 C 97 % 1033,4 hPa 0,0 l/m 0 min 0 min 0 W/m 9,7 km/h (2 Bft) 96,30 %
21.01.2022 05:08 0,4 C 0,0 C -1,1 C 97 % 1033,4 hPa 0,0 l/m 0 min 0 min 0 W/m 9,7 km/h (2 Bft) 98,00 %
21.01.2022 05:10 0,4 C 0,0 C -1,1 C 97 % 1033,4 hPa 0,0 l/m 0 min 0 min 0 W/m 6,4 km/h (2 Bft) 97,92 %
21.01.2022 05:12 0,4 C 0,0 C -1,1 C 97 % 1033,4 hPa 0,0 l/m 0 min 0 min 0 W/m 6,4 km/h (2 Bft) 97,22 %
21.01.2022 05:14 0,4 C 0,0 C -1,1 C 97 % 1033,5 hPa 0,0 l/m 0 min 0 min 0 W/m 6,4 km/h (2 Bft) 98,18 %
21.01.2022 05:16 0,4 C 0,0 C -1,1 C 97 % 1033,6 hPa 0,0 l/m 0 min 0 min 0 W/m 6,4 km/h (2 Bft) 98,00 %
21.01.2022 05:18 0,4 C 0,0 C -1,1 C 97 % 1033,7 hPa 0,0 l/m 0 min 0 min 0 W/m 9,7 km/h (2 Bft) 97,14 %
21.01.2022 05:20 0,4 C 0,0 C -1,1 C 97 % 1033,6 hPa 0,0 l/m 0 min 0 min 0 W/m 9,7 km/h (2 Bft) 98,15 %
21.01.2022 05:22 0,5 C 0,0 C -1,1 C 97 % 1033,6 hPa 0,0 l/m 0 min 0 min 0 W/m 6,4 km/h (2 Bft) 95,65 %
21.01.2022 05:24 0,6 C 0,0 C -1,1 C 97 % 1033,6 hPa 0,0 l/m 0 min 0 min 0 W/m 6,4 km/h (2 Bft) 98,00 %
21.01.2022 05:26 0,6 C 0,0 C -1,1 C 97 % 1033,6 hPa 0,0 l/m 0 min 0 min 0 W/m 6,4 km/h (2 Bft) 97,92 %
21.01.2022 05:28 0,6 C 0,0 C -1,1 C 97 % 1033,5 hPa 0,0 l/m 0 min 0 min 0 W/m 6,4 km/h (2 Bft) 97,22 %
21.01.2022 05:30 0,6 C 0,0 C -1,1 C 97 % 1033,5 hPa 0,0 l/m 0 min 0 min 0 W/m 6,4 km/h (2 Bft) 97,87 %
21.01.2022 05:32 0,6 C 0,0 C -1,1 C 97 % 1033,4 hPa 0,0 l/m 0 min 0 min 0 W/m 9,7 km/h (2 Bft) 98,21 %
21.01.2022 05:34 0,6 C 0,0 C -1,1 C 97 % 1033,4 hPa 0,0 l/m 0 min 0 min 0 W/m 9,7 km/h (2 Bft) 95,92 %
21.01.2022 05:36 0,6 C 0,0 C -1,1 C 97 % 1033,4 hPa 0,0 l/m 0 min 0 min 0 W/m 6,4 km/h (2 Bft) 97,22 %
21.01.2022 05:38 0,6 C 0,0 C -1,1 C 97 % 1033,4 hPa 0,0 l/m 0 min 0 min 0 W/m 6,4 km/h (2 Bft) 100,00 %
21.01.2022 05:40 0,6 C 0,0 C -1,1 C 97 % 1033,4 hPa 0,0 l/m 0 min 0 min 0 W/m 12,9 km/h (3 Bft) 100,00 %
21.01.2022 05:42 0,6 C 0,0 C -1,1 C 97 % 1033,4 hPa 0,0 l/m 0 min 0 min 0 W/m 12,9 km/h (3 Bft) 100,00 %
21.01.2022 05:44 0,6 C 0,0 C -1,1 C 97 % 1033,4 hPa 0,0 l/m 0 min 0 min 0 W/m 12,9 km/h (3 Bft) 100,00 %
21.01.2022 05:46 0,5 C 0,0 C -1,1 C 97 % 1033,5 hPa 0,0 l/m 0 min 0 min 0 W/m 6,4 km/h (2 Bft) 100,00 %
21.01.2022 05:48 0,5 C 0,0 C -1,1 C 97 % 1033,5 hPa 0,0 l/m 0 min 0 min 0 W/m 6,4 km/h (2 Bft) 100,00 %
21.01.2022 05:50 0,4 C 0,0 C -1,1 C 97 % 1033,5 hPa 0,0 l/m 0 min 0 min 0 W/m 9,7 km/h (2 Bft) 96,36 %
21.01.2022 05:52 0,4 C 0,0 C -1,1 C 97 % 1033,5 hPa 0,0 l/m 0 min 0 min 0 W/m 9,7 km/h (2 Bft) 98,00 %
21.01.2022 05:54 0,4 C 0,0 C -1,1 C 97 % 1033,5 hPa 0,0 l/m 0 min 0 min 0 W/m 6,4 km/h (2 Bft) 97,14 %
21.01.2022 05:56 0,4 C 0,0 C -1,1 C 97 % 1033,6 hPa 0,0 l/m 0 min 0 min 0 W/m 9,7 km/h (2 Bft) 95,74 %
21.01.2022 05:58 0,4 C 0,0 C -1,1 C 97 % 1033,5 hPa 0,0 l/m 0 min 0 min 0 W/m 9,7 km/h (2 Bft) 98,00 %
21.01.2022 06:00 0,4 C 0,0 C -1,1 C 97 % 1033,5 hPa 0,0 l/m 0 min 0 min 0 W/m 6,4 km/h (2 Bft) 98,11 %
21.01.2022 06:02 0,4 C 0,0 C -1,1 C 97 % 1033,6 hPa 0,0 l/m 0 min 0 min 0 W/m 6,4 km/h (2 Bft) 95,00 %
21.01.2022 06:04 0,4 C 0,0 C -1,1 C 97 % 1033,6 hPa 0,0 l/m 0 min 0 min 0 W/m 6,4 km/h (2 Bft) 96,00 %
21.01.2022 06:08 0,4 C 0,0 C -1,1 C 97 % 1033,5 hPa 0,0 l/m 0 min 0 min 0 W/m 6,4 km/h (2 Bft) 97,94 %
21.01.2022 06:10 0,4 C 0,0 C -1,1 C 97 % 1033,5 hPa 0,0 l/m 0 min 0 min 0 W/m 6,4 km/h (2 Bft) 97,83 %
21.01.2022 06:12 0,4 C 0,0 C -1,1 C 97 % 1033,5 hPa 0,0 l/m 0 min 0 min 0 W/m 3,2 km/h (1 Bft) 97,73 %
21.01.2022 06:14 0,4 C 0,0 C -1,1 C 97 % 1033,4 hPa 0,0 l/m 0 min 0 min 0 W/m 3,2 km/h (1 Bft) 97,87 %
21.01.2022 06:16 0,4 C 0,0 C -1,1 C 97 % 1033,4 hPa 0,0 l/m 0 min 0 min 0 W/m 9,7 km/h (2 Bft) 95,74 %
21.01.2022 06:18 0,4 C 0,0 C -1,1 C 97 % 1033,5 hPa 0,0 l/m 0 min 0 min 0 W/m 9,7 km/h (2 Bft) 97,96 %
21.01.2022 06:20 0,4 C 0,0 C -1,1 C 97 % 1033,5 hPa 0,0 l/m 0 min 0 min 0 W/m 9,7 km/h (2 Bft) 78,72 %
21.01.2022 06:22 0,4 C 0,0 C -1,1 C 97 % 1033,5 hPa 0,0 l/m 0 min 0 min 0 W/m 9,7 km/h (2 Bft) 70,45 %
21.01.2022 06:24 0,4 C -0,6 C -1,1 C 97 % 1033,5 hPa 0,0 l/m 0 min 0 min 0 W/m 6,4 km/h (2 Bft) 97,87 %
21.01.2022 06:26 0,3 C -0,6 C -1,1 C 97 % 1033,5 hPa 0,0 l/m 0 min 0 min 0 W/m 6,4 km/h (2 Bft) 97,87 %
21.01.2022 06:28 0,3 C -0,6 C -1,1 C 97 % 1033,5 hPa 0,0 l/m 0 min 0 min 0 W/m 6,4 km/h (2 Bft) 97,87 %
21.01.2022 06:30 0,3 C -0,6 C -1,1 C 97 % 1033,6 hPa 0,0 l/m 0 min 0 min 0 W/m 3,2 km/h (1 Bft) 97,83 %
21.01.2022 06:32 0,3 C -0,6 C -1,7 C 97 % 1033,6 hPa 0,0 l/m 0 min 0 min 0 W/m 6,4 km/h (2 Bft) 95,74 %
21.01.2022 06:34 0,3 C -0,6 C -1,7 C 97 % 1033,6 hPa 0,0 l/m 0 min 0 min 0 W/m 6,4 km/h (2 Bft) 91,49 %
21.01.2022 06:36 0,2 C -0,6 C -1,7 C 97 % 1033,6 hPa 0,0 l/m 0 min 0 min 0 W/m 6,4 km/h (2 Bft) 97,87 %
21.01.2022 06:38 0,2 C -0,6 C -1,7 C 97 % 1033,7 hPa 0,0 l/m 0 min 0 min 0 W/m 3,2 km/h (1 Bft) 95,74 %
21.01.2022 06:40 0,2 C -0,6 C -1,7 C 97 % 1033,6 hPa 0,0 l/m 0 min 0 min 0 W/m 9,7 km/h (2 Bft) 97,87 %
21.01.2022 06:42 0,2 C -0,6 C -1,7 C 97 % 1033,6 hPa 0,0 l/m 0 min 0 min 0 W/m 6,4 km/h (2 Bft) 97,87 %
21.01.2022 06:44 0,1 C -0,6 C -1,7 C 97 % 1033,6 hPa 0,0 l/m 0 min 0 min 0 W/m 9,7 km/h (2 Bft) 95,65 %
21.01.2022 06:46 0,1 C -0,6 C -1,7 C 97 % 1033,6 hPa 0,0 l/m 0 min 0 min 0 W/m 6,4 km/h (2 Bft) 97,87 %
21.01.2022 06:48 0,1 C -0,6 C -1,7 C 97 % 1033,6 hPa 0,0 l/m 0 min 0 min 0 W/m 6,4 km/h (2 Bft) 95,74 %
21.01.2022 06:50 0,1 C -0,6 C -1,7 C 97 % 1033,6 hPa 0,0 l/m 0 min 0 min 0 W/m 3,2 km/h (1 Bft) 97,87 %
21.01.2022 06:52 0,1 C -0,6 C -1,7 C 97 % 1033,6 hPa 0,0 l/m 0 min 0 min 0 W/m 3,2 km/h (1 Bft) 95,74 %
21.01.2022 06:54 0,0 C -0,6 C -1,7 C 97 % 1033,6 hPa 0,0 l/m 0 min 0 min 0 W/m 0,0 km/h (0 Bft) 97,87 %
21.01.2022 06:56 0,0 C -1,1 C -1,7 C 97 % 1033,7 hPa 0,0 l/m 0 min 0 min 0 W/m 3,2 km/h (1 Bft) 95,65 %
21.01.2022 06:58 -0,1 C -1,1 C -1,7 C 97 % 1033,7 hPa 0,0 l/m 0 min 0 min 0 W/m 3,2 km/h (1 Bft) 95,74 %
21.01.2022 07:00 -0,1 C -1,1 C -1,7 C 97 % 1033,6 hPa 0,0 l/m 0 min 0 min 0 W/m 3,2 km/h (1 Bft) 93,62 %
21.01.2022 07:02 -0,1 C -1,1 C -1,7 C 97 % 1033,6 hPa 0,0 l/m 0 min 0 min 0 W/m 3,2 km/h (1 Bft) 93,62 %
21.01.2022 07:04 -0,1 C -1,1 C -1,7 C 97 % 1033,6 hPa 0,0 l/m 0 min 0 min 0 W/m 0,0 km/h (0 Bft) 47,62 %
21.01.2022 07:06 -0,1 C -1,1 C -2,2 C 97 % 1033,6 hPa 0,0 l/m 0 min 0 min 0 W/m 3,2 km/h (1 Bft) 97,14 %
21.01.2022 07:08 -0,2 C -1,1 C -2,2 C 96 % 1033,6 hPa 0,0 l/m 0 min 0 min 0 W/m 6,4 km/h (2 Bft) 95,74 %
21.01.2022 07:10 -0,2 C -1,1 C -2,2 C 96 % 1033,7 hPa 0,0 l/m 0 min 0 min 0 W/m 3,2 km/h (1 Bft) 92,45 %
21.01.2022 07:12 -0,2 C -1,1 C -2,2 C 96 % 1033,7 hPa 0,0 l/m 0 min 0 min 0 W/m 3,2 km/h (1 Bft) 91,84 %
21.01.2022 07:14 -0,2 C -1,1 C -2,2 C 96 % 1033,7 hPa 0,0 l/m 0 min 0 min 0 W/m 3,2 km/h (1 Bft) 93,75 %
21.01.2022 07:16 -0,3 C -1,1 C -2,2 C 96 % 1033,8 hPa 0,0 l/m 0 min 0 min 0 W/m 3,2 km/h (1 Bft) 95,92 %
21.01.2022 07:18 -0,3 C -1,1 C -2,2 C 96 % 1033,8 hPa 0,0 l/m 0 min 0 min 0 W/m 3,2 km/h (1 Bft) 93,62 %
21.01.2022 07:20 -0,3 C -1,1 C -2,2 C 96 % 1033,8 hPa 0,0 l/m 0 min 0 min 0 W/m 0,0 km/h (0 Bft) 93,75 %
21.01.2022 07:22 -0,3 C -1,1 C -2,2 C 97 % 1033,9 hPa 0,0 l/m 0 min 0 min 0 W/m 3,2 km/h (1 Bft) 95,83 %
21.01.2022 07:24 -0,3 C -1,1 C -2,2 C 97 % 1033,9 hPa 0,0 l/m 0 min 0 min 0 W/m 3,2 km/h (1 Bft) 100,00 %
21.01.2022 07:26 -0,3 C -1,1 C -2,2 C 97 % 1033,8 hPa 0,0 l/m 0 min 0 min 0 W/m 3,2 km/h (1 Bft) 100,00 %
21.01.2022 07:28 -0,3 C -1,1 C -1,7 C 97 % 1033,9 hPa 0,0 l/m 0 min 0 min 0 W/m 3,2 km/h (1 Bft) 97,87 %
21.01.2022 07:30 -0,3 C -1,1 C -1,7 C 97 % 1033,9 hPa 0,0 l/m 0 min 0 min 0 W/m 6,4 km/h (2 Bft) 97,87 %
21.01.2022 07:32 -0,3 C -1,1 C -1,7 C 97 % 1033,9 hPa 0,0 l/m 0 min 0 min 0 W/m 6,4 km/h (2 Bft) 98,11 %
21.01.2022 07:34 -0,2 C -1,1 C -1,7 C 97 % 1034,0 hPa 0,0 l/m 0 min 0 min 0 W/m 9,7 km/h (2 Bft) 100,00 %
21.01.2022 07:36 -0,2 C -0,6 C -1,7 C 97 % 1034,0 hPa 0,0 l/m 0 min 0 min 0 W/m 6,4 km/h (2 Bft) 100,00 %
21.01.2022 07:38 -0,2 C -0,6 C -1,7 C 97 % 1033,9 hPa 0,0 l/m 0 min 0 min 0 W/m 6,4 km/h (2 Bft) 100,00 %
21.01.2022 07:40 -0,2 C -0,6 C -1,7 C 97 % 1033,9 hPa 0,0 l/m 0 min 0 min 0 W/m 6,4 km/h (2 Bft) 100,00 %
21.01.2022 07:42 -0,1 C -0,6 C -1,7 C 97 % 1034,0 hPa 0,0 l/m 0 min 0 min 0 W/m 6,4 km/h (2 Bft) 100,00 %
21.01.2022 07:44 -0,1 C -0,6 C -1,7 C 97 % 1033,9 hPa 0,0 l/m 0 min 0 min 0 W/m 6,4 km/h (2 Bft) 100,00 %
21.01.2022 07:46 -0,1 C -0,6 C -1,7 C 97 % 1034,0 hPa 0,0 l/m 0 min 0 min 0 W/m 6,4 km/h (2 Bft) 100,00 %
21.01.2022 07:48 -0,1 C -0,6 C -1,7 C 97 % 1034,0 hPa 0,0 l/m 0 min 0 min 0 W/m 9,7 km/h (2 Bft) 100,00 %
21.01.2022 07:50 -0,1 C -1,1 C -1,7 C 97 % 1034,1 hPa 0,0 l/m 0 min 0 min 0 W/m 3,2 km/h (1 Bft) 97,92 %
21.01.2022 07:52 -0,1 C -0,6 C -1,7 C 97 % 1034,0 hPa 0,0 l/m 0 min 0 min 0 W/m 3,2 km/h (1 Bft) 97,92 %
21.01.2022 07:54 -0,2 C -1,1 C -1,7 C 97 % 1034,1 hPa 0,0 l/m 0 min 0 min 0 W/m 6,4 km/h (2 Bft) 97,87 %
21.01.2022 07:56 -0,2 C -1,1 C -1,7 C 97 % 1034,1 hPa 0,0 l/m 0 min 0 min 0 W/m 6,4 km/h (2 Bft) 100,00 %
21.01.2022 07:58 -0,2 C -1,1 C -1,7 C 97 % 1034,1 hPa 0,0 l/m 0 min 0 min 0 W/m 3,2 km/h (1 Bft) 97,92 %
21.01.2022 08:00 -0,2 C -1,1 C -1,7 C 97 % 1034,1 hPa 0,0 l/m 0 min 0 min 0 W/m 6,4 km/h (2 Bft) 100,00 %
21.01.2022 08:02 -0,2 C -1,1 C -1,7 C 97 % 1034,2 hPa 0,0 l/m 0 min 0 min 0 W/m 9,7 km/h (2 Bft) 100,00 %
21.01.2022 08:04 -0,2 C -1,1 C -1,7 C 97 % 1034,2 hPa 0,0 l/m 0 min 0 min 0 W/m 6,4 km/h (2 Bft) 97,87 %
21.01.2022 08:06 -0,2 C -1,1 C -1,7 C 97 % 1034,2 hPa 0,0 l/m 0 min 0 min 0 W/m 6,4 km/h (2 Bft) 100,00 %
21.01.2022 08:08 -0,2 C -1,1 C -1,7 C 97 % 1034,2 hPa 0,0 l/m 0 min 0 min 0 W/m 3,2 km/h (1 Bft) 100,00 %
21.01.2022 08:10 -0,2 C -1,1 C -1,7 C 97 % 1034,2 hPa 0,0 l/m 0 min 0 min 0 W/m 6,4 km/h (2 Bft) 100,00 %
21.01.2022 08:12 -0,3 C -1,1 C -1,7 C 97 % 1034,2 hPa 0,0 l/m 0 min 0 min 0 W/m 6,4 km/h (2 Bft) 97,96 %
21.01.2022 08:14 -0,3 C -1,1 C -1,7 C 97 % 1034,2 hPa 0,0 l/m 0 min 0 min 0 W/m 3,2 km/h (1 Bft) 100,00 %
21.01.2022 08:16 -0,3 C -1,1 C -1,7 C 97 % 1034,2 hPa 0,0 l/m 0 min 0 min 0 W/m 3,2 km/h (1 Bft) 100,00 %
21.01.2022 08:18 -0,3 C -1,1 C -1,7 C 97 % 1034,1 hPa 0,0 l/m 0 min 0 min 0 W/m 6,4 km/h (2 Bft) 97,87 %
21.01.2022 08:20 -0,3 C -1,1 C -1,7 C 97 % 1034,1 hPa 0,0 l/m 0 min 0 min 0 W/m 3,2 km/h (1 Bft) 100,00 %
21.01.2022 08:22 -0,3 C -1,1 C -1,7 C 97 % 1034,2 hPa 0,0 l/m 0 min 0 min 0 W/m 3,2 km/h (1 Bft) 100,00 %
21.01.2022 08:24 -0,3 C -1,1 C -1,7 C 97 % 1034,1 hPa 0,0 l/m 0 min 0 min 0 W/m 3,2 km/h (1 Bft) 100,00 %
21.01.2022 08:26 -0,3 C -1,1 C -1,7 C 97 % 1034,1 hPa 0,0 l/m 0 min 0 min 0 W/m 3,2 km/h (1 Bft) 100,00 %
21.01.2022 08:28 -0,3 C -1,1 C -1,7 C 97 % 1034,1 hPa 0,0 l/m 0 min 0 min 1 W/m 3,2 km/h (1 Bft) 100,00 %
21.01.2022 08:30 -0,3 C -1,1 C -1,7 C 97 % 1034,1 hPa 0,0 l/m 0 min 0 min 5 W/m 3,2 km/h (1 Bft) 100,00 %
21.01.2022 08:32 -0,3 C -1,1 C -1,7 C 97 % 1034,1 hPa 0,0 l/m 0 min 0 min 5 W/m 3,2 km/h (1 Bft) 93,48 %
21.01.2022 08:34 -0,3 C -1,1 C -1,7 C 97 % 1034,2 hPa 0,0 l/m 0 min 0 min 5 W/m 3,2 km/h (1 Bft) 100,00 %
21.01.2022 08:36 -0,3 C -1,1 C -1,7 C 97 % 1034,3 hPa 0,0 l/m 0 min 0 min 5 W/m 3,2 km/h (1 Bft) 98,11 %
21.01.2022 08:38 -0,3 C -1,1 C -1,7 C 97 % 1034,3 hPa 0,0 l/m 0 min 0 min 7 W/m 3,2 km/h (1 Bft) 97,96 %
21.01.2022 08:40 -0,3 C -1,1 C -1,7 C 97 % 1034,3 hPa 0,0 l/m 0 min 0 min 7 W/m 3,2 km/h (1 Bft) 97,87 %
21.01.2022 08:42 -0,3 C -1,1 C -1,7 C 97 % 1034,3 hPa 0,0 l/m 0 min 0 min 9 W/m 3,2 km/h (1 Bft) 97,92 %
21.01.2022 08:44 -0,3 C -1,1 C -1,7 C 97 % 1034,3 hPa 0,0 l/m 0 min 0 min 12 W/m 3,2 km/h (1 Bft) 93,75 %
21.01.2022 08:46 -0,3 C -1,1 C -1,7 C 97 % 1034,3 hPa 0,0 l/m 0 min 0 min 14 W/m 6,4 km/h (2 Bft) 95,74 %
21.01.2022 08:48 -0,3 C -1,1 C -1,7 C 97 % 1034,4 hPa 0,0 l/m 0 min 0 min 12 W/m 3,2 km/h (1 Bft) 97,92 %
21.01.2022 08:50 -0,3 C -0,6 C -1,7 C 97 % 1034,5 hPa 0,0 l/m 0 min 0 min 13 W/m 6,4 km/h (2 Bft) 97,14 %
21.01.2022 08:52 -0,2 C -0,6 C -1,7 C 97 % 1034,6 hPa 0,0 l/m 0 min 0 min 12 W/m 3,2 km/h (1 Bft) 93,62 %
21.01.2022 08:54 -0,3 C -0,6 C -1,7 C 97 % 1034,6 hPa 0,0 l/m 0 min 0 min 13 W/m 6,4 km/h (2 Bft) 97,83 %
21.01.2022 08:56 -0,2 C -0,6 C -1,7 C 97 % 1034,6 hPa 0,0 l/m 0 min 0 min 14 W/m 3,2 km/h (1 Bft) 97,87 %
21.01.2022 08:58 -0,2 C -0,6 C -1,7 C 97 % 1034,6 hPa 0,0 l/m 0 min 0 min 18 W/m 3,2 km/h (1 Bft) 95,74 %
21.01.2022 09:00 -0,2 C -0,6 C -1,7 C 97 % 1034,6 hPa 0,0 l/m 0 min 0 min 23 W/m 3,2 km/h (1 Bft) 95,74 %
21.01.2022 09:02 -0,2 C -0,6 C -1,7 C 97 % 1034,6 hPa 0,0 l/m 0 min 0 min 23 W/m 3,2 km/h (1 Bft) 96,36 %
21.01.2022 09:04 -0,2 C -0,6 C -1,7 C 97 % 1034,7 hPa 0,0 l/m 0 min 0 min 20 W/m 6,4 km/h (2 Bft) 95,74 %
21.01.2022 09:06 -0,2 C -0,6 C -1,7 C 97 % 1034,6 hPa 0,0 l/m 0 min 0 min 21 W/m 6,4 km/h (2 Bft) 87,23 %
21.01.2022 09:08 -0,2 C -0,6 C -1,7 C 97 % 1034,7 hPa 0,0 l/m 0 min 0 min 18 W/m 3,2 km/h (1 Bft) 92,11 %
21.01.2022 09:10 -0,2 C -0,6 C -1,7 C 97 % 1034,7 hPa 0,0 l/m 0 min 0 min 18 W/m 3,2 km/h (1 Bft) 95,74 %
21.01.2022 09:12 -0,2 C -0,6 C -1,7 C 97 % 1034,6 hPa 0,0 l/m 0 min 0 min 17 W/m 3,2 km/h (1 Bft) 97,87 %
21.01.2022 09:17 -0,2 C -0,6 C -1,7 C 97 % 1034,4 hPa 0,0 l/m 0 min 0 min 17 W/m 3,2 km/h (1 Bft) 98,59 %
21.01.2022 09:18 -0,2 C -0,6 C -1,7 C 97 % 1034,4 hPa 0,0 l/m 0 min 0 min 18 W/m 3,2 km/h (1 Bft) 90,91 %
21.01.2022 09:20 -0,2 C -0,6 C -1,7 C 97 % 1034,4 hPa 0,0 l/m 0 min 0 min 20 W/m 3,2 km/h (1 Bft) 93,62 %
21.01.2022 09:22 -0,2 C -0,6 C -1,7 C 97 % 1034,4 hPa 0,0 l/m 0 min 0 min 22 W/m 3,2 km/h (1 Bft) 95,74 %
21.01.2022 09:24 -0,2 C -0,6 C -1,7 C 97 % 1034,4 hPa 0,0 l/m 0 min 0 min 23 W/m 3,2 km/h (1 Bft) 93,62 %
21.01.2022 09:26 -0,1 C -0,6 C -1,7 C 97 % 1034,3 hPa 0,0 l/m 0 min 0 min 22 W/m 6,4 km/h (2 Bft) 96,30 %
21.01.2022 09:28 -0,1 C -0,6 C -1,7 C 97 % 1034,3 hPa 0,0 l/m 0 min 0 min 24 W/m 3,2 km/h (1 Bft) 93,62 %
21.01.2022 09:30 -0,1 C -0,6 C -1,7 C 97 % 1034,3 hPa 0,0 l/m 0 min 0 min 26 W/m 6,4 km/h (2 Bft) 95,74 %
21.01.2022 09:32 -0,1 C -0,6 C -1,7 C 97 % 1034,4 hPa 0,0 l/m 0 min 0 min 24 W/m 6,4 km/h (2 Bft) 93,75 %
21.01.2022 09:34 -0,1 C -0,6 C -1,7 C 97 % 1034,4 hPa 0,0 l/m 0 min 0 min 25 W/m 3,2 km/h (1 Bft) 95,83 %
21.01.2022 09:36 -0,1 C -0,6 C -1,1 C 97 % 1034,4 hPa 0,0 l/m 0 min 0 min 26 W/m 6,4 km/h (2 Bft) 95,83 %
21.01.2022 09:38 0,0 C -0,6 C -1,1 C 97 % 1034,4 hPa 0,0 l/m 0 min 0 min 26 W/m 6,4 km/h (2 Bft) 97,87 %
21.01.2022 09:40 0,0 C -0,6 C -1,1 C 97 % 1034,4 hPa 0,0 l/m 0 min 0 min 30 W/m 6,4 km/h (2 Bft) 97,92 %
21.01.2022 09:42 0,0 C 0,0 C -1,1 C 97 % 1034,4 hPa 0,0 l/m 0 min 0 min 35 W/m 3,2 km/h (1 Bft) 97,87 %
21.01.2022 09:44 0,1 C 0,0 C -1,1 C 97 % 1034,5 hPa 0,0 l/m 0 min 0 min 35 W/m 6,4 km/h (2 Bft) 97,92 %
21.01.2022 09:46 0,1 C 0,0 C -1,1 C 97 % 1034,5 hPa 0,0 l/m 0 min 0 min 39 W/m 3,2 km/h (1 Bft) 97,44 %
21.01.2022 09:48 0,1 C 0,0 C -1,1 C 97 % 1034,5 hPa 0,0 l/m 0 min 0 min 47 W/m 6,4 km/h (2 Bft) 97,92 %
21.01.2022 09:50 0,1 C 0,0 C -1,1 C 97 % 1034,5 hPa 0,0 l/m 0 min 0 min 53 W/m 3,2 km/h (1 Bft) 95,74 %
21.01.2022 09:52 0,1 C 0,0 C -1,1 C 97 % 1034,5 hPa 0,0 l/m 0 min 0 min 75 W/m 6,4 km/h (2 Bft) 95,74 %
21.01.2022 09:54 0,1 C 0,0 C -1,1 C 97 % 1034,5 hPa 0,0 l/m 0 min 0 min 88 W/m 3,2 km/h (1 Bft) 97,87 %
21.01.2022 09:56 0,2 C 0,0 C -1,1 C 97 % 1034,5 hPa 0,0 l/m 2 min 0 min 101 W/m 3,2 km/h (1 Bft) 97,87 %
21.01.2022 09:58 0,2 C 0,0 C -1,1 C 97 % 1034,5 hPa 0,0 l/m 2 min 0 min 118 W/m 6,4 km/h (2 Bft) 100,00 %
21.01.2022 10:00 0,2 C 0,0 C -1,1 C 97 % 1034,5 hPa 0,0 l/m 0 min 0 min 90 W/m 3,2 km/h (1 Bft) 97,92 %
21.01.2022 10:02 0,3 C 0,0 C -1,1 C 97 % 1034,5 hPa 0,0 l/m 0 min 0 min 91 W/m 6,4 km/h (2 Bft) 100,00 %
21.01.2022 10:04 0,3 C 0,0 C -1,1 C 97 % 1034,5 hPa 0,0 l/m 2 min 0 min 108 W/m 6,4 km/h (2 Bft) 100,00 %
21.01.2022 10:06 0,3 C 0,6 C -1,1 C 97 % 1034,5 hPa 0,0 l/m 2 min 0 min 153 W/m 6,4 km/h (2 Bft) 100,00 %
21.01.2022 10:08 0,4 C 0,6 C -1,1 C 97 % 1034,5 hPa 0,0 l/m 2 min 0 min 180 W/m 3,2 km/h (1 Bft) 97,87 %
21.01.2022 10:10 0,4 C 0,6 C -1,1 C 97 % 1034,4 hPa 0,0 l/m 2 min 0 min 154 W/m 6,4 km/h (2 Bft) 100,00 %
21.01.2022 10:12 0,5 C 0,6 C -0,6 C 97 % 1034,5 hPa 0,0 l/m 2 min 0 min 187 W/m 6,4 km/h (2 Bft) 100,00 %
21.01.2022 10:14 0,6 C 0,6 C -0,6 C 97 % 1034,4 hPa 0,2 l/m 2 min 0 min 190 W/m 3,2 km/h (1 Bft) 100,00 %
21.01.2022 10:16 0,6 C 0,6 C -0,6 C 97 % 1034,4 hPa 0,0 l/m 2 min 0 min 192 W/m 6,4 km/h (2 Bft) 100,00 %
21.01.2022 10:18 0,6 C 0,6 C -0,6 C 97 % 1034,4 hPa 0,0 l/m 2 min 0 min 193 W/m 6,4 km/h (2 Bft) 100,00 %
21.01.2022 10:20 0,7 C 0,6 C -0,6 C 97 % 1034,5 hPa 0,0 l/m 2 min 0 min 175 W/m 6,4 km/h (2 Bft) 100,00 %
21.01.2022 10:22 0,7 C 1,1 C -0,6 C 97 % 1034,4 hPa 0,0 l/m 2 min 0 min 198 W/m 9,7 km/h (2 Bft) 100,00 %
21.01.2022 10:24 0,8 C 1,1 C -0,6 C 97 % 1034,5 hPa 0,0 l/m 2 min 0 min 186 W/m 3,2 km/h (1 Bft) 97,87 %
21.01.2022 10:26 0,9 C 1,1 C -0,6 C 98 % 1034,5 hPa 0,0 l/m 2 min 0 min 181 W/m 3,2 km/h (1 Bft) 100,00 %
21.01.2022 10:28 0,9 C 1,1 C -0,6 C 98 % 1034,6 hPa 0,0 l/m 2 min 0 min 194 W/m 6,4 km/h (2 Bft) 100,00 %
21.01.2022 10:30 1,0 C 1,1 C -0,6 C 98 % 1034,7 hPa 0,0 l/m 2 min 0 min 210 W/m 9,7 km/h (2 Bft) 100,00 %
21.01.2022 10:32 1,1 C 1,1 C -0,6 C 98 % 1034,6 hPa 0,0 l/m 2 min 0 min 210 W/m 6,4 km/h (2 Bft) 96,00 %
21.01.2022 10:34 1,2 C 1,1 C -0,6 C 98 % 1034,6 hPa 0,0 l/m 2 min 0 min 189 W/m 6,4 km/h (2 Bft) 97,87 %
21.01.2022 10:36 1,2 C 1,1 C -0,6 C 98 % 1034,6 hPa 0,0 l/m 2 min 0 min 189 W/m 12,9 km/h (3 Bft) 100,00 %
21.01.2022 10:38 1,3 C 1,1 C -0,6 C 98 % 1034,7 hPa 0,0 l/m 2 min 0 min 216 W/m 6,4 km/h (2 Bft) 97,87 %
21.01.2022 10:40 1,3 C 1,1 C -0,6 C 98 % 1034,7 hPa 0,0 l/m 2 min 0 min 222 W/m 9,7 km/h (2 Bft) 100,00 %
21.01.2022 10:42 1,4 C 1,7 C 0,0 C 98 % 1034,7 hPa 0,0 l/m 2 min 0 min 225 W/m 6,4 km/h (2 Bft) 100,00 %
21.01.2022 10:44 1,5 C 1,7 C 0,0 C 98 % 1034,7 hPa 0,0 l/m 2 min 0 min 245 W/m 9,7 km/h (2 Bft) 97,92 %
21.01.2022 10:46 1,6 C 1,7 C 0,0 C 98 % 1034,6 hPa 0,0 l/m 2 min 0 min 274 W/m 6,4 km/h (2 Bft) 100,00 %
21.01.2022 10:48 1,7 C 2,2 C 0,0 C 98 % 1034,7 hPa 0,0 l/m 2 min 0 min 256 W/m 9,7 km/h (2 Bft) 100,00 %
21.01.2022 10:50 1,8 C 2,8 C 0,0 C 98 % 1034,6 hPa 0,0 l/m 2 min 0 min 234 W/m 9,7 km/h (2 Bft) 100,00 %
21.01.2022 10:52 1,8 C 2,8 C 0,6 C 98 % 1034,6 hPa 0,0 l/m 2 min 0 min 153 W/m 6,4 km/h (2 Bft) 100,00 %
21.01.2022 10:54 1,9 C 2,8 C 0,6 C 98 % 1034,7 hPa 0,0 l/m 0 min 0 min 116 W/m 6,4 km/h (2 Bft) 97,92 %
21.01.2022 10:56 1,9 C 2,8 C 0,6 C 98 % 1034,7 hPa 0,0 l/m 0 min 0 min 130 W/m 12,9 km/h (3 Bft) 100,00 %
21.01.2022 10:58 1,9 C 2,8 C 0,6 C 98 % 1034,7 hPa 0,0 l/m 0 min 0 min 145 W/m 6,4 km/h (2 Bft) 100,00 %
21.01.2022 11:00 2,0 C 2,8 C 0,6 C 98 % 1034,7 hPa 0,0 l/m 0 min 0 min 137 W/m 9,7 km/h (2 Bft) 100,00 %
21.01.2022 11:02 2,1 C 2,8 C 0,6 C 97 % 1034,7 hPa 0,0 l/m 2 min 0 min 157 W/m 6,4 km/h (2 Bft) 95,74 %
21.01.2022 11:04 2,1 C 2,8 C 1,1 C 97 % 1034,7 hPa 0,0 l/m 2 min 0 min 154 W/m 9,7 km/h (2 Bft) 97,87 %
21.01.2022 11:06 2,2 C 2,8 C 1,1 C 98 % 1034,7 hPa 0,0 l/m 0 min 0 min 132 W/m 6,4 km/h (2 Bft) 97,87 %
21.01.2022 11:08 2,2 C 2,8 C 1,1 C 97 % 1034,7 hPa 0,0 l/m 0 min 0 min 127 W/m 9,7 km/h (2 Bft) 98,15 %
21.01.2022 11:10 2,3 C 2,8 C 1,1 C 97 % 1034,7 hPa 0,0 l/m 0 min 0 min 112 W/m 3,2 km/h (1 Bft) 95,74 %
21.01.2022 11:12 2,3 C 2,8 C 1,1 C 97 % 1034,7 hPa 0,0 l/m 0 min 0 min 100 W/m 6,4 km/h (2 Bft) 94,59 %
21.01.2022 11:14 2,3 C 2,8 C 1,1 C 97 % 1034,7 hPa 0,0 l/m 0 min 0 min 92 W/m 6,4 km/h (2 Bft) 95,74 %
21.01.2022 11:16 2,3 C 2,8 C 1,1 C 97 % 1034,7 hPa 0,0 l/m 0 min 0 min 93 W/m 9,7 km/h (2 Bft) 95,83 %
21.01.2022 11:18 2,3 C 2,8 C 1,1 C 97 % 1034,7 hPa 0,0 l/m 0 min 0 min 91 W/m 6,4 km/h (2 Bft) 93,75 %
21.01.2022 11:20 2,3 C 3,3 C 1,1 C 97 % 1034,8 hPa 0,0 l/m 0 min 0 min 117 W/m 6,4 km/h (2 Bft) 95,74 %
21.01.2022 11:22 2,4 C 3,9 C 1,1 C 97 % 1034,9 hPa 0,0 l/m 2 min 0 min 170 W/m 6,4 km/h (2 Bft) 93,48 %
21.01.2022 11:24 2,4 C 5,0 C 1,1 C 97 % 1034,9 hPa 0,0 l/m 2 min 0 min 253 W/m 6,4 km/h (2 Bft) 95,74 %
21.01.2022 11:26 2,6 C 5,6 C 1,7 C 97 % 1034,9 hPa 0,0 l/m 2 min 0 min 251 W/m 6,4 km/h (2 Bft) 95,74 %
21.01.2022 11:28 2,6 C 4,4 C 1,7 C 97 % 1034,9 hPa 0,0 l/m 0 min 0 min 143 W/m 3,2 km/h (1 Bft) 95,74 %
21.01.2022 11:30 2,7 C 3,9 C 1,7 C 97 % 1034,8 hPa 0,0 l/m 0 min 0 min 121 W/m 6,4 km/h (2 Bft) 98,15 %
21.01.2022 11:32 2,7 C 3,9 C 1,7 C 97 % 1034,9 hPa 0,0 l/m 0 min 0 min 142 W/m 6,4 km/h (2 Bft) 94,59 %
21.01.2022 11:34 2,8 C 3,9 C 1,7 C 97 % 1034,9 hPa 0,0 l/m 0 min 0 min 150 W/m 9,7 km/h (2 Bft) 95,83 %
21.01.2022 11:36 2,8 C 3,3 C 1,7 C 96 % 1034,9 hPa 0,0 l/m 0 min 0 min 134 W/m 9,7 km/h (2 Bft) 91,30 %
21.01.2022 11:38 2,8 C 3,3 C 1,7 C 96 % 1034,9 hPa 0,0 l/m 0 min 0 min 141 W/m 9,7 km/h (2 Bft) 95,74 %
21.01.2022 11:40 2,9 C 3,3 C 1,7 C 96 % 1034,9 hPa 0,0 l/m 0 min 0 min 143 W/m 6,4 km/h (2 Bft) 95,74 %
21.01.2022 11:42 2,9 C 3,9 C 1,7 C 96 % 1034,8 hPa 0,0 l/m 0 min 0 min 144 W/m 12,9 km/h (3 Bft) 95,83 %
21.01.2022 11:44 2,9 C 3,9 C 1,7 C 96 % 1034,7 hPa 0,0 l/m 0 min 0 min 133 W/m 12,9 km/h (3 Bft) 93,75 %
21.01.2022 11:46 3,0 C 3,9 C 1,7 C 96 % 1034,7 hPa 0,0 l/m 0 min 0 min 122 W/m 6,4 km/h (2 Bft) 54,35 %
21.01.2022 11:48 3,0 C 3,9 C 1,7 C 96 % 1034,8 hPa 0,0 l/m 0 min 0 min 127 W/m 12,9 km/h (3 Bft) 93,62 %
21.01.2022 11:50 3,1 C 4,4 C 2,2 C 96 % 1034,8 hPa 0,0 l/m 0 min 0 min 160 W/m 6,4 km/h (2 Bft) 95,74 %
21.01.2022 11:52 3,1 C 4,4 C 2,2 C 96 % 1034,8 hPa 0,0 l/m 2 min 0 min 175 W/m 12,9 km/h (3 Bft) 97,87 %
21.01.2022 11:54 3,2 C 4,4 C 2,2 C 96 % 1034,9 hPa 0,0 l/m 0 min 0 min 160 W/m 12,9 km/h (3 Bft) 97,87 %
21.01.2022 11:56 3,3 C 4,4 C 2,2 C 96 % 1034,9 hPa 0,0 l/m 0 min 0 min 160 W/m 12,9 km/h (3 Bft) 96,23 %
21.01.2022 11:58 3,3 C 4,4 C 2,2 C 95 % 1034,8 hPa 0,0 l/m 0 min 0 min 159 W/m 16,1 km/h (3 Bft) 100,00 %
21.01.2022 12:00 3,3 C 4,4 C 2,2 C 95 % 1034,8 hPa 0,0 l/m 0 min 0 min 163 W/m 9,7 km/h (2 Bft) 100,00 %
21.01.2022 12:02 3,3 C 3,9 C 2,2 C 95 % 1034,7 hPa 0,0 l/m 0 min 0 min 165 W/m 9,7 km/h (2 Bft) 100,00 %
21.01.2022 12:04 3,4 C 4,4 C 2,2 C 95 % 1034,7 hPa 0,0 l/m 0 min 0 min 157 W/m 12,9 km/h (3 Bft) 97,92 %
21.01.2022 12:08 3,6 C 4,4 C 2,8 C 95 % 1034,7 hPa 0,0 l/m 0 min 0 min 134 W/m 16,1 km/h (3 Bft) 98,95 %
21.01.2022 12:10 3,6 C 3,9 C 2,8 C 95 % 1034,7 hPa 0,0 l/m 0 min 0 min 147 W/m 12,9 km/h (3 Bft) 100,00 %
21.01.2022 12:12 3,6 C 4,4 C 2,8 C 95 % 1034,7 hPa 0,0 l/m 0 min 0 min 140 W/m 12,9 km/h (3 Bft) 100,00 %
21.01.2022 12:14 3,7 C 4,4 C 2,8 C 95 % 1034,7 hPa 0,0 l/m 0 min 0 min 130 W/m 9,7 km/h (2 Bft) 100,00 %
21.01.2022 12:16 3,7 C 4,4 C 2,8 C 95 % 1034,7 hPa 0,0 l/m 0 min 0 min 136 W/m 12,9 km/h (3 Bft) 100,00 %
21.01.2022 12:18 3,8 C 4,4 C 2,8 C 94 % 1034,6 hPa 0,0 l/m 0 min 0 min 144 W/m 22,5 km/h (4 Bft) 100,00 %
21.01.2022 12:20 3,8 C 4,4 C 2,8 C 94 % 1034,6 hPa 0,0 l/m 0 min 0 min 157 W/m 12,9 km/h (3 Bft) 100,00 %
21.01.2022 12:22 3,9 C 4,4 C 2,8 C 94 % 1034,6 hPa 0,0 l/m 0 min 0 min 164 W/m 12,9 km/h (3 Bft) 97,87 %
21.01.2022 12:24 3,9 C 4,4 C 2,8 C 94 % 1034,5 hPa 0,0 l/m 0 min 0 min 158 W/m 12,9 km/h (3 Bft) 100,00 %
21.01.2022 12:26 4,0 C 4,4 C 2,8 C 94 % 1034,5 hPa 0,0 l/m 0 min 0 min 141 W/m 9,7 km/h (2 Bft) 97,92 %
21.01.2022 12:28 4,1 C 4,4 C 2,8 C 94 % 1034,5 hPa 0,0 l/m 0 min 0 min 129 W/m 9,7 km/h (2 Bft) 100,00 %
21.01.2022 12:30 4,1 C 4,4 C 2,8 C 94 % 1034,4 hPa 0,0 l/m 0 min 0 min 120 W/m 16,1 km/h (3 Bft) 97,92 %
21.01.2022 12:32 4,1 C 4,4 C 2,8 C 94 % 1034,4 hPa 0,0 l/m 0 min 0 min 119 W/m 12,9 km/h (3 Bft) 100,00 %
21.01.2022 12:34 4,0 C 4,4 C 2,8 C 93 % 1034,4 hPa 0,0 l/m 0 min 0 min 132 W/m 9,7 km/h (2 Bft) 100,00 %
21.01.2022 12:36 4,1 C 4,4 C 2,8 C 93 % 1034,4 hPa 0,0 l/m 0 min 0 min 135 W/m 9,7 km/h (2 Bft) 97,87 %
21.01.2022 12:38 4,1 C 4,4 C 2,8 C 93 % 1034,3 hPa 0,0 l/m 0 min 0 min 138 W/m 6,4 km/h (2 Bft) 100,00 %
21.01.2022 12:40 4,1 C 4,4 C 2,8 C 93 % 1034,3 hPa 0,0 l/m 0 min 0 min 145 W/m 16,1 km/h (3 Bft) 100,00 %
21.01.2022 12:42 4,2 C 4,4 C 2,8 C 93 % 1034,2 hPa 0,0 l/m 0 min 0 min 141 W/m 9,7 km/h (2 Bft) 100,00 %
21.01.2022 12:44 4,2 C 5,0 C 2,8 C 93 % 1034,3 hPa 0,0 l/m 0 min 0 min 131 W/m 9,7 km/h (2 Bft) 97,92 %
21.01.2022 12:46 4,3 C 5,0 C 2,8 C 93 % 1034,2 hPa 0,0 l/m 0 min 0 min 117 W/m 9,7 km/h (2 Bft) 100,00 %
21.01.2022 12:48 4,3 C 5,0 C 2,8 C 93 % 1034,2 hPa 0,0 l/m 0 min 0 min 115 W/m 12,9 km/h (3 Bft) 98,63 %
21.01.2022 12:50 4,3 C 4,4 C 2,8 C 93 % 1034,2 hPa 0,0 l/m 0 min 0 min 127 W/m 12,9 km/h (3 Bft) 97,87 %
21.01.2022 12:52 4,3 C 5,0 C 2,8 C 93 % 1034,2 hPa 0,0 l/m 0 min 0 min 138 W/m 9,7 km/h (2 Bft) 95,74 %
21.01.2022 12:54 4,4 C 5,0 C 2,8 C 93 % 1034,1 hPa 0,0 l/m 0 min 0 min 132 W/m 6,4 km/h (2 Bft) 97,87 %
21.01.2022 12:56 4,4 C 5,0 C 2,8 C 92 % 1034,2 hPa 0,0 l/m 0 min 0 min 141 W/m 16,1 km/h (3 Bft) 95,65 %
21.01.2022 12:58 4,4 C 5,0 C 2,8 C 92 % 1034,2 hPa 0,0 l/m 0 min 0 min 166 W/m 9,7 km/h (2 Bft) 98,15 %
21.01.2022 13:00 4,5 C 5,6 C 3,3 C 92 % 1034,2 hPa 0,0 l/m 0 min 0 min 175 W/m 6,4 km/h (2 Bft) 97,87 %
21.01.2022 13:02 4,5 C 5,6 C 3,3 C 92 % 1034,1 hPa 0,0 l/m 0 min 0 min 176 W/m 12,9 km/h (3 Bft) 95,83 %
21.01.2022 13:04 4,6 C 6,1 C 3,3 C 92 % 1034,1 hPa 0,0 l/m 0 min 0 min 167 W/m 12,9 km/h (3 Bft) 100,00 %
21.01.2022 13:06 4,7 C 6,1 C 3,3 C 92 % 1034,2 hPa 0,0 l/m 0 min 0 min 168 W/m 12,9 km/h (3 Bft) 97,92 %
21.01.2022 13:08 4,7 C 6,1 C 3,3 C 92 % 1034,1 hPa 0,0 l/m 2 min 0 min 193 W/m 3,2 km/h (1 Bft) 97,87 %
21.01.2022 13:10 4,8 C 7,8 C 3,3 C 92 % 1034,1 hPa 0,0 l/m 2 min 0 min 213 W/m 6,4 km/h (2 Bft) 95,83 %
21.01.2022 13:12 4,8 C 8,3 C 3,3 C 92 % 1034,1 hPa 0,0 l/m 2 min 0 min 233 W/m 6,4 km/h (2 Bft) 97,96 %
21.01.2022 13:14 5,0 C 7,8 C 3,3 C 92 % 1034,1 hPa 0,0 l/m 2 min 0 min 248 W/m 6,4 km/h (2 Bft) 97,92 %
21.01.2022 13:16 5,1 C 7,8 C 3,9 C 92 % 1034,0 hPa 0,0 l/m 2 min 0 min 221 W/m 9,7 km/h (2 Bft) 97,87 %
21.01.2022 13:18 5,1 C 7,2 C 3,9 C 92 % 1034,1 hPa 0,0 l/m 2 min 0 min 202 W/m 9,7 km/h (2 Bft) 97,83 %
21.01.2022 13:20 5,2 C 6,7 C 3,9 C 91 % 1034,1 hPa 0,0 l/m 2 min 0 min 186 W/m 12,9 km/h (3 Bft) 97,87 %
21.01.2022 13:22 5,2 C 6,7 C 3,3 C 91 % 1034,1 hPa 0,0 l/m 0 min 0 min 147 W/m 9,7 km/h (2 Bft) 97,87 %
21.01.2022 13:24 5,2 C 6,1 C 3,3 C 91 % 1034,1 hPa 0,0 l/m 0 min 0 min 131 W/m 12,9 km/h (3 Bft) 95,74 %
21.01.2022 13:26 5,2 C 5,6 C 3,3 C 91 % 1034,1 hPa 0,0 l/m 0 min 0 min 123 W/m 9,7 km/h (2 Bft) 97,14 %
21.01.2022 13:28 5,2 C 5,6 C 3,3 C 90 % 1034,1 hPa 0,0 l/m 0 min 0 min 138 W/m 9,7 km/h (2 Bft) 98,15 %
21.01.2022 13:30 5,2 C 5,6 C 3,3 C 90 % 1034,1 hPa 0,0 l/m 0 min 0 min 135 W/m 12,9 km/h (3 Bft) 97,87 %
21.01.2022 13:32 5,2 C 5,6 C 3,3 C 90 % 1034,1 hPa 0,0 l/m 0 min 0 min 105 W/m 12,9 km/h (3 Bft) 97,92 %
21.01.2022 13:34 5,2 C 5,0 C 3,3 C 90 % 1034,1 hPa 0,0 l/m 0 min 0 min 92 W/m 12,9 km/h (3 Bft) 95,74 %
21.01.2022 13:36 5,1 C 5,0 C 3,3 C 90 % 1034,0 hPa 0,0 l/m 0 min 0 min 94 W/m 12,9 km/h (3 Bft) 95,83 %
21.01.2022 13:38 5,1 C 5,0 C 3,3 C 90 % 1034,0 hPa 0,0 l/m 0 min 0 min 111 W/m 6,4 km/h (2 Bft) 91,67 %
21.01.2022 13:40 5,1 C 5,0 C 3,3 C 90 % 1034,0 hPa 0,0 l/m 0 min 0 min 127 W/m 9,7 km/h (2 Bft) 93,75 %
21.01.2022 13:42 5,1 C 5,0 C 3,3 C 90 % 1034,0 hPa 0,0 l/m 0 min 0 min 110 W/m 9,7 km/h (2 Bft) 91,30 %
21.01.2022 13:44 5,1 C 5,0 C 3,3 C 90 % 1034,0 hPa 0,0 l/m 0 min 0 min 105 W/m 12,9 km/h (3 Bft) 93,62 %
21.01.2022 13:46 5,1 C 5,0 C 3,3 C 90 % 1034,0 hPa 0,0 l/m 0 min 0 min 94 W/m 9,7 km/h (2 Bft) 91,49 %
21.01.2022 13:48 5,1 C 5,0 C 3,3 C 90 % 1033,9 hPa 0,0 l/m 0 min 0 min 70 W/m 12,9 km/h (3 Bft) 93,62 %
21.01.2022 13:50 5,1 C 5,0 C 3,3 C 90 % 1033,9 hPa 0,0 l/m 0 min 0 min 82 W/m 12,9 km/h (3 Bft) 95,74 %
21.01.2022 13:52 5,1 C 5,0 C 3,3 C 90 % 1033,9 hPa 0,0 l/m 0 min 0 min 97 W/m 12,9 km/h (3 Bft) 93,48 %
21.01.2022 13:54 5,1 C 5,0 C 3,3 C 90 % 1033,9 hPa 0,0 l/m 0 min 0 min 106 W/m 12,9 km/h (3 Bft) 97,22 %
21.01.2022 13:56 5,2 C 5,0 C 3,3 C 90 % 1033,9 hPa 0,0 l/m 0 min 0 min 107 W/m 6,4 km/h (2 Bft) 92,59 %
21.01.2022 13:58 5,2 C 5,0 C 3,3 C 90 % 1033,9 hPa 0,0 l/m 0 min 0 min 87 W/m 12,9 km/h (3 Bft) 95,83 %
21.01.2022 14:00 5,2 C 5,0 C 3,3 C 90 % 1033,9 hPa 0,0 l/m 0 min 0 min 74 W/m 9,7 km/h (2 Bft) 93,62 %
21.01.2022 14:02 5,2 C 5,0 C 3,3 C 90 % 1033,9 hPa 0,0 l/m 0 min 0 min 60 W/m 6,4 km/h (2 Bft) 93,75 %
21.01.2022 14:04 5,2 C 5,0 C 3,3 C 90 % 1033,9 hPa 0,0 l/m 0 min 0 min 61 W/m 12,9 km/h (3 Bft) 93,48 %
21.01.2022 14:06 5,2 C 5,0 C 3,3 C 90 % 1033,9 hPa 0,0 l/m 0 min 0 min 56 W/m 12,9 km/h (3 Bft) 91,49 %
21.01.2022 14:08 5,2 C 5,0 C 3,3 C 90 % 1033,9 hPa 0,0 l/m 0 min 0 min 66 W/m 6,4 km/h (2 Bft) 89,58 %
21.01.2022 14:10 5,2 C 5,0 C 3,3 C 90 % 1033,8 hPa 0,0 l/m 0 min 0 min 75 W/m 12,9 km/h (3 Bft) 53,85 %
21.01.2022 14:12 5,2 C 5,0 C 3,3 C 90 % 1033,8 hPa 0,0 l/m 0 min 0 min 75 W/m 12,9 km/h (3 Bft) 97,92 %
21.01.2022 14:14 5,2 C 5,0 C 3,3 C 90 % 1033,8 hPa 0,0 l/m 0 min 0 min 82 W/m 6,4 km/h (2 Bft) 97,87 %
21.01.2022 14:16 5,2 C 5,0 C 3,3 C 90 % 1033,8 hPa 0,0 l/m 0 min 0 min 77 W/m 9,7 km/h (2 Bft) 95,65 %
21.01.2022 14:18 5,2 C 5,0 C 3,3 C 90 % 1033,8 hPa 0,0 l/m 0 min 0 min 58 W/m 16,1 km/h (3 Bft) 97,87 %
21.01.2022 14:20 5,2 C 5,0 C 3,3 C 90 % 1033,7 hPa 0,0 l/m 0 min 0 min 56 W/m 12,9 km/h (3 Bft) 97,87 %
21.01.2022 14:22 5,2 C 5,0 C 3,3 C 90 % 1033,7 hPa 0,0 l/m 0 min 0 min 60 W/m 16,1 km/h (3 Bft) 97,87 %
21.01.2022 14:24 5,2 C 5,0 C 3,3 C 90 % 1033,7 hPa 0,0 l/m 0 min 0 min 52 W/m 16,1 km/h (3 Bft) 100,00 %
21.01.2022 14:26 5,2 C 5,0 C 3,3 C 90 % 1033,7 hPa 0,0 l/m 0 min 0 min 44 W/m 6,4 km/h (2 Bft) 97,87 %
21.01.2022 14:28 5,2 C 5,0 C 3,3 C 91 % 1033,7 hPa 0,0 l/m 0 min 0 min 51 W/m 12,9 km/h (3 Bft) 97,83 %
21.01.2022 14:30 5,2 C 5,0 C 3,3 C 91 % 1033,6 hPa 0,0 l/m 0 min 0 min 50 W/m 19,3 km/h (3 Bft) 100,00 %
21.01.2022 14:32 5,2 C 5,0 C 2,8 C 91 % 1033,6 hPa 0,0 l/m 0 min 0 min 46 W/m 6,4 km/h (2 Bft) 100,00 %
21.01.2022 14:34 5,2 C 5,0 C 2,8 C 91 % 1033,6 hPa 0,0 l/m 0 min 0 min 45 W/m 9,7 km/h (2 Bft) 100,00 %
21.01.2022 14:36 5,2 C 5,0 C 2,8 C 91 % 1033,6 hPa 0,0 l/m 0 min 2 min 48 W/m 12,9 km/h (3 Bft) 100,00 %
21.01.2022 14:38 5,2 C 5,0 C 2,8 C 91 % 1033,5 hPa 0,0 l/m 0 min 0 min 54 W/m 9,7 km/h (2 Bft) 95,92 %
21.01.2022 14:40 5,2 C 5,0 C 2,8 C 91 % 1033,5 hPa 0,0 l/m 0 min 0 min 51 W/m 9,7 km/h (2 Bft) 100,00 %
21.01.2022 14:42 5,2 C 5,0 C 2,8 C 91 % 1033,5 hPa 0,0 l/m 0 min 0 min 35 W/m 6,4 km/h (2 Bft) 100,00 %
21.01.2022 14:44 5,2 C 4,4 C 2,8 C 91 % 1033,5 hPa 0,0 l/m 0 min 0 min 25 W/m 6,4 km/h (2 Bft) 100,00 %
21.01.2022 14:46 5,2 C 4,4 C 2,8 C 91 % 1033,6 hPa 0,0 l/m 0 min 0 min 21 W/m 6,4 km/h (2 Bft) 100,00 %
21.01.2022 14:48 5,2 C 4,4 C 2,8 C 91 % 1033,5 hPa 0,0 l/m 0 min 0 min 20 W/m 12,9 km/h (3 Bft) 100,00 %
21.01.2022 14:50 5,2 C 4,4 C 2,8 C 92 % 1033,5 hPa 0,0 l/m 0 min 0 min 19 W/m 6,4 km/h (2 Bft) 100,00 %
21.01.2022 14:52 5,2 C 4,4 C 2,8 C 92 % 1033,5 hPa 0,0 l/m 0 min 0 min 21 W/m 12,9 km/h (3 Bft) 100,00 %
21.01.2022 14:54 5,1 C 4,4 C 2,8 C 92 % 1033,5 hPa 0,0 l/m 0 min 0 min 19 W/m 6,4 km/h (2 Bft) 100,00 %
21.01.2022 14:56 5,1 C 4,4 C 2,8 C 92 % 1033,5 hPa 0,0 l/m 0 min 0 min 21 W/m 6,4 km/h (2 Bft) 100,00 %
21.01.2022 14:58 5,1 C 4,4 C 2,8 C 92 % 1033,4 hPa 0,0 l/m 0 min 0 min 28 W/m 6,4 km/h (2 Bft) 100,00 %
21.01.2022 15:00 5,0 C 4,4 C 2,8 C 92 % 1033,4 hPa 0,0 l/m 0 min 0 min 27 W/m 6,4 km/h (2 Bft) 97,92 %
21.01.2022 15:02 4,9 C 4,4 C 2,8 C 92 % 1033,5 hPa 0,0 l/m 0 min 0 min 22 W/m 6,4 km/h (2 Bft) 100,00 %
21.01.2022 15:04 4,9 C 4,4 C 2,8 C 93 % 1033,4 hPa 0,0 l/m 0 min 0 min 19 W/m 6,4 km/h (2 Bft) 100,00 %
21.01.2022 15:06 4,9 C 4,4 C 2,8 C 93 % 1033,4 hPa 0,0 l/m 0 min 0 min 18 W/m 6,4 km/h (2 Bft) 95,74 %
21.01.2022 15:08 4,9 C 4,4 C 2,8 C 93 % 1033,5 hPa 0,0 l/m 0 min 0 min 17 W/m 6,4 km/h (2 Bft) 100,00 %
21.01.2022 15:10 4,9 C 4,4 C 2,8 C 93 % 1033,5 hPa 0,0 l/m 0 min 0 min 17 W/m 6,4 km/h (2 Bft) 100,00 %
21.01.2022 15:12 4,8 C 4,4 C 2,8 C 93 % 1033,5 hPa 0,0 l/m 0 min 0 min 15 W/m 6,4 km/h (2 Bft) 100,00 %
21.01.2022 15:14 4,8 C 4,4 C 2,8 C 93 % 1033,5 hPa 0,0 l/m 0 min 0 min 12 W/m 6,4 km/h (2 Bft) 100,00 %
21.01.2022 15:16 4,8 C 4,4 C 2,8 C 93 % 1033,5 hPa 0,0 l/m 0 min 0 min 12 W/m 3,2 km/h (1 Bft) 100,00 %
21.01.2022 15:18 4,8 C 4,4 C 2,8 C 93 % 1033,5 hPa 0,0 l/m 0 min 0 min 11 W/m 6,4 km/h (2 Bft) 100,00 %
21.01.2022 15:20 4,8 C 4,4 C 2,2 C 93 % 1033,5 hPa 0,0 l/m 0 min 0 min 11 W/m 6,4 km/h (2 Bft) 100,00 %
21.01.2022 15:22 4,8 C 4,4 C 2,2 C 93 % 1033,5 hPa 0,0 l/m 0 min 0 min 11 W/m 3,2 km/h (1 Bft) 100,00 %
21.01.2022 15:24 4,8 C 4,4 C 2,2 C 93 % 1033,5 hPa 0,0 l/m 0 min 0 min 12 W/m 6,4 km/h (2 Bft) 100,00 %
21.01.2022 15:26 4,8 C 4,4 C 2,2 C 93 % 1033,5 hPa 0,0 l/m 0 min 0 min 13 W/m 6,4 km/h (2 Bft) 97,87 %
21.01.2022 15:28 4,8 C 4,4 C 2,2 C 94 % 1033,4 hPa 0,0 l/m 0 min 0 min 15 W/m 3,2 km/h (1 Bft) 100,00 %
21.01.2022 15:30 4,8 C 4,4 C 2,2 C 94 % 1033,5 hPa 0,0 l/m 0 min 0 min 18 W/m 9,7 km/h (2 Bft) 100,00 %
21.01.2022 15:32 4,8 C 4,4 C 2,2 C 94 % 1033,5 hPa 0,0 l/m 0 min 0 min 23 W/m 12,9 km/h (3 Bft) 100,00 %
21.01.2022 15:34 4,8 C 4,4 C 2,2 C 94 % 1033,5 hPa 0,0 l/m 0 min 0 min 26 W/m 9,7 km/h (2 Bft) 100,00 %
21.01.2022 15:36 4,8 C 4,4 C 2,8 C 94 % 1033,4 hPa 0,0 l/m 0 min 0 min 30 W/m 12,9 km/h (3 Bft) 98,18 %
21.01.2022 15:38 4,9 C 4,4 C 2,8 C 94 % 1033,4 hPa 0,0 l/m 0 min 0 min 34 W/m 9,7 km/h (2 Bft) 98,00 %
21.01.2022 15:40 4,9 C 4,4 C 2,8 C 94 % 1033,5 hPa 0,0 l/m 0 min 0 min 31 W/m 9,7 km/h (2 Bft) 95,74 %
21.01.2022 15:42 4,9 C 4,4 C 2,8 C 94 % 1033,5 hPa 0,0 l/m 0 min 0 min 24 W/m 6,4 km/h (2 Bft) 97,87 %
21.01.2022 15:44 4,9 C 4,4 C 2,8 C 94 % 1033,5 hPa 0,0 l/m 0 min 0 min 15 W/m 6,4 km/h (2 Bft) 95,74 %
21.01.2022 15:46 5,0 C 4,4 C 2,8 C 94 % 1033,5 hPa 0,0 l/m 0 min 0 min 15 W/m 6,4 km/h (2 Bft) 97,87 %
21.01.2022 15:48 5,0 C 4,4 C 2,8 C 94 % 1033,5 hPa 0,0 l/m 0 min 0 min 23 W/m 9,7 km/h (2 Bft) 97,87 %
21.01.2022 15:50 5,0 C 4,4 C 2,8 C 94 % 1033,5 hPa 0,0 l/m 0 min 0 min 28 W/m 12,9 km/h (3 Bft) 93,48 %
21.01.2022 15:52 5,0 C 4,4 C 2,8 C 94 % 1033,4 hPa 0,0 l/m 0 min 0 min 34 W/m 6,4 km/h (2 Bft) 97,87 %
21.01.2022 15:54 5,0 C 4,4 C 2,8 C 94 % 1033,4 hPa 0,0 l/m 0 min 0 min 40 W/m 9,7 km/h (2 Bft) 97,87 %
21.01.2022 15:56 5,1 C 4,4 C 2,8 C 94 % 1033,4 hPa 0,0 l/m 0 min 0 min 35 W/m 6,4 km/h (2 Bft) 93,62 %
21.01.2022 15:58 5,1 C 4,4 C 2,8 C 94 % 1033,4 hPa 0,0 l/m 0 min 0 min 26 W/m 9,7 km/h (2 Bft) 95,74 %
21.01.2022 16:00 5,1 C 4,4 C 2,8 C 94 % 1033,4 hPa 0,0 l/m 0 min 0 min 19 W/m 9,7 km/h (2 Bft) 94,29 %
21.01.2022 16:02 5,1 C 4,4 C 2,8 C 95 % 1033,4 hPa 0,0 l/m 0 min 0 min 15 W/m 9,7 km/h (2 Bft) 96,23 %
21.01.2022 16:04 5,1 C 4,4 C 2,8 C 95 % 1033,4 hPa 0,0 l/m 0 min 0 min 11 W/m 9,7 km/h (2 Bft) 95,74 %
21.01.2022 16:06 5,1 C 4,4 C 2,8 C 95 % 1033,4 hPa 0,0 l/m 0 min 0 min 10 W/m 9,7 km/h (2 Bft) 95,74 %
21.01.2022 16:08 5,1 C 4,4 C 2,8 C 95 % 1033,4 hPa 0,0 l/m 0 min 0 min 11 W/m 12,9 km/h (3 Bft) 95,92 %
21.01.2022 16:10 5,1 C 4,4 C 2,8 C 95 % 1033,3 hPa 0,0 l/m 0 min 0 min 12 W/m 12,9 km/h (3 Bft) 95,83 %
21.01.2022 16:12 5,1 C 4,4 C 2,8 C 95 % 1033,4 hPa 0,0 l/m 0 min 0 min 10 W/m 12,9 km/h (3 Bft) 93,75 %
21.01.2022 16:14 5,1 C 4,4 C 2,8 C 95 % 1033,4 hPa 0,0 l/m 0 min 0 min 12 W/m 12,9 km/h (3 Bft) 97,87 %
21.01.2022 16:16 5,1 C 4,4 C 2,8 C 95 % 1033,3 hPa 0,0 l/m 0 min 0 min 11 W/m 19,3 km/h (3 Bft) 97,87 %
21.01.2022 16:18 5,1 C 4,4 C 2,8 C 95 % 1033,4 hPa 0,0 l/m 0 min 0 min 8 W/m 9,7 km/h (2 Bft) 97,87 %
21.01.2022 16:20 5,1 C 4,4 C 2,8 C 95 % 1033,4 hPa 0,0 l/m 0 min 0 min 5 W/m 12,9 km/h (3 Bft) 97,87 %
21.01.2022 16:22 5,0 C 4,4 C 2,8 C 94 % 1033,4 hPa 0,0 l/m 0 min 0 min 6 W/m 12,9 km/h (3 Bft) 94,29 %
21.01.2022 16:24 5,0 C 4,4 C 2,2 C 95 % 1033,3 hPa 0,0 l/m 0 min 0 min 11 W/m 6,4 km/h (2 Bft) 96,30 %
21.01.2022 16:26 5,0 C 4,4 C 2,2 C 95 % 1033,3 hPa 0,0 l/m 0 min 0 min 11 W/m 16,1 km/h (3 Bft) 91,67 %
21.01.2022 16:28 5,0 C 4,4 C 2,2 C 95 % 1033,3 hPa 0,0 l/m 0 min 0 min 12 W/m 6,4 km/h (2 Bft) 95,83 %
21.01.2022 16:30 4,9 C 4,4 C 2,2 C 95 % 1033,4 hPa 0,0 l/m 0 min 0 min 13 W/m 6,4 km/h (2 Bft) 93,62 %
21.01.2022 16:32 4,9 C 4,4 C 2,2 C 95 % 1033,3 hPa 0,0 l/m 0 min 0 min 14 W/m 6,4 km/h (2 Bft) 95,83 %
21.01.2022 16:34 4,9 C 4,4 C 2,2 C 95 % 1033,4 hPa 0,0 l/m 0 min 0 min 16 W/m 9,7 km/h (2 Bft) 97,87 %
21.01.2022 16:36 4,9 C 4,4 C 2,2 C 95 % 1033,3 hPa 0,0 l/m 0 min 0 min 16 W/m 6,4 km/h (2 Bft) 95,74 %
21.01.2022 16:38 4,9 C 4,4 C 2,2 C 95 % 1033,4 hPa 0,0 l/m 0 min 0 min 14 W/m 6,4 km/h (2 Bft) 94,29 %
21.01.2022 16:40 4,9 C 4,4 C 2,2 C 95 % 1033,3 hPa 0,0 l/m 0 min 0 min 14 W/m 6,4 km/h (2 Bft) 94,44 %
21.01.2022 16:42 4,9 C 4,4 C 2,2 C 95 % 1033,3 hPa 0,0 l/m 0 min 0 min 12 W/m 3,2 km/h (1 Bft) 97,92 %
21.01.2022 16:44 4,9 C 4,4 C 2,2 C 95 % 1033,3 hPa 0,0 l/m 0 min 0 min 11 W/m 6,4 km/h (2 Bft) 97,87 %
21.01.2022 16:46 4,8 C 4,4 C 2,2 C 95 % 1033,3 hPa 0,0 l/m 0 min 0 min 8 W/m 6,4 km/h (2 Bft) 93,75 %
21.01.2022 16:48 4,8 C 4,4 C 2,2 C 95 % 1033,4 hPa 0,0 l/m 0 min 0 min 5 W/m 9,7 km/h (2 Bft) 97,87 %
21.01.2022 16:50 4,8 C 4,4 C 2,2 C 95 % 1033,3 hPa 0,0 l/m 0 min 0 min 5 W/m 3,2 km/h (1 Bft) 97,92 %
21.01.2022 16:52 4,8 C 4,4 C 2,2 C 95 % 1033,4 hPa 0,0 l/m 0 min 0 min 0 W/m 6,4 km/h (2 Bft) 95,74 %
21.01.2022 16:54 4,8 C 4,4 C 2,2 C 95 % 1033,4 hPa 0,0 l/m 0 min 0 min 0 W/m 6,4 km/h (2 Bft) 97,92 %
21.01.2022 16:56 4,8 C 4,4 C 2,2 C 95 % 1033,4 hPa 0,0 l/m 0 min 0 min 0 W/m 12,9 km/h (3 Bft) 93,62 %
21.01.2022 16:58 4,8 C 4,4 C 2,2 C 95 % 1033,4 hPa 0,0 l/m 0 min 0 min 0 W/m 6,4 km/h (2 Bft) 97,83 %
21.01.2022 17:00 4,8 C 4,4 C 2,2 C 95 % 1033,3 hPa 0,0 l/m 0 min 0 min 0 W/m 6,4 km/h (2 Bft) 97,87 %
21.01.2022 17:02 4,8 C 4,4 C 2,2 C 96 % 1033,3 hPa 0,0 l/m 0 min 0 min 0 W/m 6,4 km/h (2 Bft) 97,56 %
21.01.2022 17:04 4,8 C 4,4 C 2,2 C 96 % 1033,3 hPa 0,0 l/m 0 min 0 min 0 W/m 12,9 km/h (3 Bft) 97,92 %
21.01.2022 17:06 4,8 C 4,4 C 2,2 C 96 % 1033,3 hPa 0,0 l/m 0 min 0 min 0 W/m 6,4 km/h (2 Bft) 95,83 %
21.01.2022 17:08 4,8 C 4,4 C 2,2 C 96 % 1033,3 hPa 0,0 l/m 0 min 0 min 0 W/m 12,9 km/h (3 Bft) 97,92 %
21.01.2022 17:10 4,8 C 4,4 C 2,2 C 96 % 1033,3 hPa 0,0 l/m 0 min 0 min 0 W/m 6,4 km/h (2 Bft) 97,92 %
21.01.2022 17:12 4,8 C 3,9 C 2,2 C 96 % 1033,3 hPa 0,0 l/m 0 min 0 min 0 W/m 6,4 km/h (2 Bft) 97,92 %
21.01.2022 17:14 4,8 C 3,9 C 2,2 C 96 % 1033,4 hPa 0,0 l/m 0 min 0 min 0 W/m 9,7 km/h (2 Bft) 100,00 %
21.01.2022 17:16 4,8 C 4,4 C 2,2 C 96 % 1033,3 hPa 0,0 l/m 0 min 0 min 0 W/m 3,2 km/h (1 Bft) 100,00 %
21.01.2022 17:18 4,8 C 4,4 C 2,2 C 96 % 1033,3 hPa 0,0 l/m 0 min 0 min 0 W/m 6,4 km/h (2 Bft) 100,00 %
21.01.2022 17:20 4,8 C 3,9 C 2,2 C 96 % 1033,3 hPa 0,0 l/m 0 min 0 min 0 W/m 3,2 km/h (1 Bft) 97,87 %
21.01.2022 17:22 4,7 C 3,9 C 2,2 C 96 % 1033,3 hPa 0,0 l/m 0 min 0 min 0 W/m 3,2 km/h (1 Bft) 100,00 %
21.01.2022 17:24 4,7 C 3,9 C 2,2 C 96 % 1033,3 hPa 0,0 l/m 0 min 0 min 0 W/m 6,4 km/h (2 Bft) 100,00 %
21.01.2022 17:26 4,7 C 3,9 C 2,2 C 96 % 1033,3 hPa 0,0 l/m 0 min 0 min 0 W/m 6,4 km/h (2 Bft) 97,56 %
21.01.2022 17:28 4,7 C 3,9 C 2,2 C 96 % 1033,2 hPa 0,0 l/m 0 min 0 min 0 W/m 6,4 km/h (2 Bft) 97,96 %
21.01.2022 17:30 4,7 C 3,9 C 2,2 C 96 % 1033,2 hPa 0,0 l/m 0 min 0 min 0 W/m 3,2 km/h (1 Bft) 97,92 %
21.01.2022 17:32 4,7 C 3,9 C 2,2 C 96 % 1033,2 hPa 0,0 l/m 0 min 0 min 0 W/m 6,4 km/h (2 Bft) 100,00 %
21.01.2022 17:34 4,7 C 3,9 C 2,2 C 96 % 1033,2 hPa 0,0 l/m 0 min 0 min 0 W/m 9,7 km/h (2 Bft) 100,00 %
21.01.2022 17:36 4,7 C 3,9 C 2,2 C 96 % 1033,2 hPa 0,0 l/m 0 min 0 min 0 W/m 6,4 km/h (2 Bft) 100,00 %
21.01.2022 17:38 4,7 C 3,9 C 2,2 C 96 % 1033,2 hPa 0,0 l/m 0 min 0 min 0 W/m 6,4 km/h (2 Bft) 97,62 %
21.01.2022 17:40 4,7 C 3,9 C 2,2 C 96 % 1033,2 hPa 0,0 l/m 0 min 0 min 0 W/m 9,7 km/h (2 Bft) 97,92 %
21.01.2022 17:42 4,7 C 3,9 C 2,2 C 96 % 1033,2 hPa 0,0 l/m 0 min 0 min 0 W/m 6,4 km/h (2 Bft) 95,83 %
21.01.2022 17:44 4,7 C 3,9 C 2,2 C 96 % 1033,2 hPa 0,0 l/m 0 min 0 min 0 W/m 6,4 km/h (2 Bft) 95,83 %
21.01.2022 17:46 4,7 C 3,9 C 2,2 C 96 % 1033,2 hPa 0,0 l/m 0 min 0 min 0 W/m 3,2 km/h (1 Bft) 95,74 %
21.01.2022 17:48 4,7 C 4,4 C 2,2 C 96 % 1033,2 hPa 0,0 l/m 0 min 0 min 0 W/m 6,4 km/h (2 Bft) 97,92 %
21.01.2022 17:50 4,7 C 4,4 C 2,8 C 96 % 1033,2 hPa 0,0 l/m 0 min 0 min 0 W/m 6,4 km/h (2 Bft) 97,87 %
21.01.2022 17:52 4,7 C 4,4 C 2,8 C 96 % 1033,2 hPa 0,0 l/m 0 min 0 min 0 W/m 6,4 km/h (2 Bft) 97,87 %
21.01.2022 17:54 4,8 C 4,4 C 2,8 C 96 % 1033,2 hPa 0,0 l/m 0 min 0 min 0 W/m 12,9 km/h (3 Bft) 97,87 %
21.01.2022 17:56 4,8 C 4,4 C 2,8 C 96 % 1033,1 hPa 0,0 l/m 0 min 0 min 0 W/m 3,2 km/h (1 Bft) 97,14 %
21.01.2022 17:58 4,8 C 4,4 C 2,8 C 96 % 1033,2 hPa 0,0 l/m 0 min 0 min 0 W/m 6,4 km/h (2 Bft) 98,11 %
21.01.2022 18:00 4,8 C 4,4 C 2,8 C 96 % 1033,1 hPa 0,0 l/m 0 min 0 min 0 W/m 12,9 km/h (3 Bft) 98,00 %
21.01.2022 18:02 4,8 C 4,4 C 2,8 C 96 % 1033,1 hPa 0,0 l/m 0 min 0 min 0 W/m 6,4 km/h (2 Bft) 95,83 %
21.01.2022 18:04 4,8 C 4,4 C 2,8 C 96 % 1033,0 hPa 0,0 l/m 0 min 0 min 0 W/m 9,7 km/h (2 Bft) 97,92 %
21.01.2022 18:08 4,8 C 4,4 C 2,8 C 96 % 1033,0 hPa 0,0 l/m 0 min 0 min 0 W/m 9,7 km/h (2 Bft) 96,77 %
21.01.2022 18:10 4,8 C 4,4 C 2,8 C 96 % 1033,1 hPa 0,0 l/m 0 min 0 min 0 W/m 9,7 km/h (2 Bft) 95,74 %
21.01.2022 18:12 4,8 C 4,4 C 2,8 C 96 % 1033,1 hPa 0,0 l/m 0 min 0 min 0 W/m 12,9 km/h (3 Bft) 100,00 %
21.01.2022 18:14 4,8 C 4,4 C 2,8 C 96 % 1033,1 hPa 0,0 l/m 0 min 0 min 0 W/m 12,9 km/h (3 Bft) 100,00 %
21.01.2022 18:16 4,8 C 4,4 C 2,8 C 96 % 1033,0 hPa 0,0 l/m 0 min 0 min 0 W/m 12,9 km/h (3 Bft) 97,92 %
21.01.2022 18:18 4,8 C 4,4 C 2,8 C 96 % 1033,1 hPa 0,0 l/m 0 min 0 min 0 W/m 16,1 km/h (3 Bft) 97,92 %
21.01.2022 18:20 4,8 C 4,4 C 2,8 C 96 % 1033,1 hPa 0,0 l/m 0 min 0 min 0 W/m 12,9 km/h (3 Bft) 100,00 %
21.01.2022 18:22 4,8 C 4,4 C 2,8 C 96 % 1033,1 hPa 0,0 l/m 0 min 0 min 0 W/m 16,1 km/h (3 Bft) 100,00 %
21.01.2022 18:24 4,8 C 4,4 C 2,8 C 96 % 1033,1 hPa 0,0 l/m 0 min 0 min 0 W/m 9,7 km/h (2 Bft) 97,92 %
21.01.2022 18:26 4,9 C 4,4 C 2,8 C 96 % 1033,1 hPa 0,0 l/m 0 min 0 min 0 W/m 16,1 km/h (3 Bft) 95,74 %
21.01.2022 18:28 4,8 C 4,4 C 2,8 C 96 % 1033,1 hPa 0,0 l/m 0 min 0 min 0 W/m 9,7 km/h (2 Bft) 97,87 %
21.01.2022 18:30 4,8 C 4,4 C 2,8 C 96 % 1033,1 hPa 0,0 l/m 0 min 0 min 0 W/m 6,4 km/h (2 Bft) 97,14 %
21.01.2022 18:32 4,9 C 4,4 C 2,8 C 96 % 1033,1 hPa 0,0 l/m 0 min 0 min 0 W/m 6,4 km/h (2 Bft) 100,00 %
21.01.2022 18:34 4,9 C 4,4 C 2,8 C 96 % 1033,1 hPa 0,0 l/m 0 min 0 min 0 W/m 9,7 km/h (2 Bft) 97,92 %
21.01.2022 18:36 4,8 C 4,4 C 2,2 C 96 % 1033,0 hPa 0,0 l/m 0 min 0 min 0 W/m 12,9 km/h (3 Bft) 97,92 %
21.01.2022 18:38 4,8 C 4,4 C 2,2 C 96 % 1033,0 hPa 0,0 l/m 0 min 0 min 0 W/m 12,9 km/h (3 Bft) 97,92 %
21.01.2022 18:40 4,8 C 4,4 C 2,2 C 96 % 1033,0 hPa 0,0 l/m 0 min 0 min 0 W/m 12,9 km/h (3 Bft) 95,83 %
21.01.2022 18:42 4,8 C 4,4 C 2,2 C 96 % 1033,0 hPa 0,0 l/m 0 min 0 min 0 W/m 22,5 km/h (4 Bft) 97,83 %
21.01.2022 18:44 4,8 C 4,4 C 2,2 C 96 % 1033,0 hPa 0,0 l/m 0 min 0 min 0 W/m 12,9 km/h (3 Bft) 97,87 %
21.01.2022 18:46 4,8 C 4,4 C 2,2 C 96 % 1033,1 hPa 0,0 l/m 0 min 0 min 0 W/m 12,9 km/h (3 Bft) 92,86 %
21.01.2022 18:48 4,8 C 4,4 C 2,2 C 96 % 1033,1 hPa 0,0 l/m 0 min 0 min 0 W/m 12,9 km/h (3 Bft) 95,83 %
21.01.2022 18:50 4,8 C 4,4 C 2,2 C 96 % 1033,2 hPa 0,0 l/m 0 min 0 min 0 W/m 16,1 km/h (3 Bft) 97,92 %
21.01.2022 18:52 4,8 C 4,4 C 2,8 C 96 % 1033,2 hPa 0,0 l/m 0 min 0 min 0 W/m 9,7 km/h (2 Bft) 97,92 %
21.01.2022 18:54 4,8 C 4,4 C 2,2 C 96 % 1033,3 hPa 0,0 l/m 0 min 0 min 0 W/m 12,9 km/h (3 Bft) 97,87 %
21.01.2022 18:56 4,8 C 4,4 C 2,2 C 96 % 1033,3 hPa 0,0 l/m 0 min 0 min 0 W/m 12,9 km/h (3 Bft) 97,92 %
21.01.2022 18:58 4,8 C 4,4 C 2,8 C 96 % 1033,3 hPa 0,0 l/m 0 min 0 min 0 W/m 16,1 km/h (3 Bft) 100,00 %
21.01.2022 19:00 4,8 C 3,9 C 2,8 C 96 % 1033,3 hPa 0,0 l/m 0 min 0 min 0 W/m 12,9 km/h (3 Bft) 97,87 %
21.01.2022 19:02 4,7 C 3,9 C 2,8 C 96 % 1033,4 hPa 0,0 l/m 0 min 0 min 0 W/m 16,1 km/h (3 Bft) 97,62 %
21.01.2022 19:04 4,7 C 3,9 C 2,8 C 96 % 1033,3 hPa 0,0 l/m 0 min 0 min 0 W/m 9,7 km/h (2 Bft) 93,75 %
21.01.2022 19:06 4,7 C 3,9 C 2,8 C 96 % 1033,3 hPa 0,0 l/m 0 min 0 min 0 W/m 9,7 km/h (2 Bft) 97,92 %
21.01.2022 19:08 4,7 C 3,9 C 2,8 C 96 % 1033,3 hPa 0,0 l/m 0 min 0 min 0 W/m 16,1 km/h (3 Bft) 97,83 %
21.01.2022 19:10 4,7 C 3,9 C 2,8 C 96 % 1033,4 hPa 0,0 l/m 0 min 0 min 0 W/m 12,9 km/h (3 Bft) 95,83 %
21.01.2022 19:12 4,7 C 3,9 C 2,8 C 96 % 1033,4 hPa 0,0 l/m 0 min 0 min 0 W/m 9,7 km/h (2 Bft) 95,92 %
21.01.2022 19:14 4,7 C 3,9 C 2,8 C 96 % 1033,4 hPa 0,0 l/m 0 min 0 min 0 W/m 9,7 km/h (2 Bft) 97,87 %
21.01.2022 19:16 4,7 C 3,9 C 2,8 C 96 % 1033,4 hPa 0,0 l/m 0 min 0 min 0 W/m 9,7 km/h (2 Bft) 100,00 %
21.01.2022 19:18 4,7 C 3,9 C 2,8 C 96 % 1033,5 hPa 0,0 l/m 0 min 0 min 0 W/m 12,9 km/h (3 Bft) 100,00 %
21.01.2022 19:20 4,7 C 3,9 C 2,8 C 96 % 1033,5 hPa 0,0 l/m 0 min 0 min 0 W/m 16,1 km/h (3 Bft) 98,11 %
21.01.2022 19:22 4,7 C 3,9 C 2,8 C 96 % 1033,5 hPa 0,0 l/m 0 min 0 min 0 W/m 9,7 km/h (2 Bft) 95,74 %
21.01.2022 19:24 4,7 C 3,9 C 2,8 C 96 % 1033,5 hPa 0,0 l/m 0 min 0 min 0 W/m 12,9 km/h (3 Bft) 95,83 %
21.01.2022 19:26 4,7 C 3,9 C 2,8 C 96 % 1033,5 hPa 0,0 l/m 0 min 0 min 0 W/m 12,9 km/h (3 Bft) 95,83 %
21.01.2022 19:28 4,7 C 3,9 C 2,8 C 96 % 1033,5 hPa 0,0 l/m 0 min 0 min 0 W/m 12,9 km/h (3 Bft) 97,92 %
21.01.2022 19:30 4,7 C 3,9 C 2,8 C 96 % 1033,5 hPa 0,0 l/m 0 min 0 min 0 W/m 16,1 km/h (3 Bft) 97,83 %
21.01.2022 19:32 4,7 C 3,9 C 2,2 C 96 % 1033,5 hPa 0,0 l/m 0 min 0 min 0 W/m 9,7 km/h (2 Bft) 95,92 %
21.01.2022 19:34 4,7 C 3,9 C 2,2 C 96 % 1033,6 hPa 0,0 l/m 0 min 0 min 0 W/m 12,9 km/h (3 Bft) 95,74 %
21.01.2022 19:36 4,7 C 3,9 C 2,2 C 96 % 1033,6 hPa 0,0 l/m 0 min 0 min 0 W/m 12,9 km/h (3 Bft) 95,74 %
21.01.2022 19:38 4,7 C 3,9 C 2,2 C 96 % 1033,5 hPa 0,0 l/m 0 min 0 min 0 W/m 12,9 km/h (3 Bft) 97,67 %
21.01.2022 19:40 4,7 C 3,9 C 2,2 C 96 % 1033,5 hPa 0,0 l/m 0 min 0 min 0 W/m 12,9 km/h (3 Bft) 93,75 %
21.01.2022 19:42 4,7 C 3,9 C 2,2 C 96 % 1033,6 hPa 0,0 l/m 0 min 0 min 0 W/m 9,7 km/h (2 Bft) 95,65 %
21.01.2022 19:44 4,7 C 3,9 C 2,2 C 96 % 1033,6 hPa 0,0 l/m 0 min 2 min 0 W/m 16,1 km/h (3 Bft) 95,83 %
21.01.2022 19:46 4,7 C 3,9 C 2,2 C 96 % 1033,6 hPa 0,0 l/m 0 min 2 min 0 W/m 12,9 km/h (3 Bft) 95,83 %
21.01.2022 19:48 4,7 C 3,9 C 2,2 C 96 % 1033,5 hPa 0,0 l/m 0 min 2 min 0 W/m 9,7 km/h (2 Bft) 95,83 %
21.01.2022 19:50 4,7 C 3,9 C 2,2 C 96 % 1033,5 hPa 0,0 l/m 0 min 2 min 0 W/m 12,9 km/h (3 Bft) 95,74 %
21.01.2022 19:52 4,7 C 3,9 C 2,2 C 96 % 1033,5 hPa 0,0 l/m 0 min 2 min 0 W/m 9,7 km/h (2 Bft) 95,65 %
21.01.2022 19:54 4,7 C 3,9 C 2,2 C 96 % 1033,5 hPa 0,0 l/m 0 min 2 min 0 W/m 12,9 km/h (3 Bft) 93,62 %
21.01.2022 19:56 4,7 C 3,9 C 2,2 C 96 % 1033,5 hPa 0,0 l/m 0 min 2 min 0 W/m 6,4 km/h (2 Bft) 97,14 %
21.01.2022 19:58 4,6 C 3,9 C 2,2 C 96 % 1033,5 hPa 0,0 l/m 0 min 0 min 0 W/m 6,4 km/h (2 Bft) 96,23 %
21.01.2022 20:00 4,6 C 3,9 C 2,2 C 96 % 1033,5 hPa 0,0 l/m 0 min 0 min 0 W/m 6,4 km/h (2 Bft) 91,67 %
21.01.2022 20:02 4,6 C 3,9 C 2,2 C 96 % 1033,5 hPa 0,0 l/m 0 min 0 min 0 W/m 16,1 km/h (3 Bft) 93,88 %
21.01.2022 20:04 4,6 C 3,9 C 2,2 C 96 % 1033,5 hPa 0,0 l/m 0 min 0 min 0 W/m 16,1 km/h (3 Bft) 95,83 %
21.01.2022 20:06 4,6 C 3,9 C 2,2 C 96 % 1033,4 hPa 0,0 l/m 0 min 0 min 0 W/m 9,7 km/h (2 Bft) 95,83 %
21.01.2022 20:08 4,5 C 3,9 C 2,2 C 96 % 1033,5 hPa 0,0 l/m 0 min 0 min 0 W/m 12,9 km/h (3 Bft) 97,87 %
21.01.2022 20:10 4,4 C 3,9 C 2,2 C 96 % 1033,5 hPa 0,0 l/m 0 min 0 min 0 W/m 12,9 km/h (3 Bft) 97,92 %
21.01.2022 20:12 4,4 C 3,9 C 2,2 C 96 % 1033,5 hPa 0,0 l/m 0 min 0 min 0 W/m 16,1 km/h (3 Bft) 97,30 %
21.01.2022 20:14 4,4 C 3,9 C 2,2 C 96 % 1033,5 hPa 0,0 l/m 0 min 0 min 0 W/m 12,9 km/h (3 Bft) 100,00 %
21.01.2022 20:16 4,4 C 3,9 C 2,2 C 96 % 1033,5 hPa 0,0 l/m 0 min 0 min 0 W/m 9,7 km/h (2 Bft) 100,00 %
21.01.2022 20:18 4,4 C 3,9 C 2,2 C 96 % 1033,6 hPa 0,0 l/m 0 min 0 min 0 W/m 16,1 km/h (3 Bft) 98,08 %
21.01.2022 20:20 4,4 C 3,9 C 2,2 C 96 % 1033,6 hPa 0,0 l/m 0 min 0 min 0 W/m 12,9 km/h (3 Bft) 100,00 %
21.01.2022 20:22 4,4 C 3,9 C 2,2 C 96 % 1033,5 hPa 0,0 l/m 0 min 0 min 0 W/m 12,9 km/h (3 Bft) 100,00 %
21.01.2022 20:24 4,4 C 3,9 C 2,2 C 96 % 1033,5 hPa 0,0 l/m 0 min 0 min 0 W/m 12,9 km/h (3 Bft) 100,00 %
21.01.2022 20:26 4,3 C 3,9 C 2,2 C 96 % 1033,6 hPa 0,0 l/m 0 min 0 min 0 W/m 12,9 km/h (3 Bft) 100,00 %
21.01.2022 20:28 4,3 C 3,9 C 2,2 C 96 % 1033,6 hPa 0,0 l/m 0 min 0 min 0 W/m 12,9 km/h (3 Bft) 97,83 %
21.01.2022 20:30 4,3 C 3,9 C 2,2 C 96 % 1033,6 hPa 0,0 l/m 0 min 0 min 0 W/m 6,4 km/h (2 Bft) 100,00 %
21.01.2022 20:32 4,3 C 3,3 C 2,2 C 96 % 1033,7 hPa 0,0 l/m 0 min 0 min 0 W/m 6,4 km/h (2 Bft) 100,00 %
21.01.2022 20:34 4,3 C 3,3 C 2,2 C 96 % 1033,6 hPa 0,0 l/m 0 min 0 min 0 W/m 19,3 km/h (3 Bft) 97,92 %
21.01.2022 20:36 4,3 C 3,3 C 2,2 C 97 % 1033,6 hPa 0,0 l/m 0 min 0 min 0 W/m 9,7 km/h (2 Bft) 100,00 %
21.01.2022 20:38 4,2 C 3,3 C 2,2 C 97 % 1033,6 hPa 0,0 l/m 0 min 0 min 0 W/m 16,1 km/h (3 Bft) 100,00 %
21.01.2022 20:40 4,2 C 3,3 C 2,2 C 97 % 1033,7 hPa 0,0 l/m 0 min 0 min 0 W/m 16,1 km/h (3 Bft) 100,00 %
21.01.2022 20:42 4,2 C 3,3 C 2,2 C 97 % 1033,7 hPa 0,0 l/m 0 min 0 min 0 W/m 12,9 km/h (3 Bft) 100,00 %
21.01.2022 20:44 4,2 C 3,3 C 2,2 C 97 % 1033,8 hPa 0,0 l/m 0 min 0 min 0 W/m 12,9 km/h (3 Bft) 100,00 %
21.01.2022 20:46 4,2 C 3,3 C 2,2 C 96 % 1033,8 hPa 0,0 l/m 0 min 0 min 0 W/m 6,4 km/h (2 Bft) 100,00 %
21.01.2022 20:48 4,2 C 3,3 C 2,2 C 96 % 1033,9 hPa 0,0 l/m 0 min 0 min 0 W/m 12,9 km/h (3 Bft) 100,00 %
21.01.2022 20:50 4,2 C 3,3 C 2,2 C 97 % 1033,9 hPa 0,0 l/m 0 min 0 min 0 W/m 12,9 km/h (3 Bft) 97,87 %
21.01.2022 20:52 4,2 C 3,3 C 2,2 C 97 % 1033,8 hPa 0,0 l/m 0 min 0 min 0 W/m 12,9 km/h (3 Bft) 98,11 %
21.01.2022 20:54 4,2 C 3,9 C 2,2 C 97 % 1033,9 hPa 0,0 l/m 0 min 0 min 0 W/m 6,4 km/h (2 Bft) 97,92 %
21.01.2022 20:56 4,2 C 3,9 C 2,2 C 97 % 1033,9 hPa 0,0 l/m 0 min 0 min 0 W/m 12,9 km/h (3 Bft) 100,00 %
21.01.2022 20:58 4,2 C 3,9 C 2,2 C 97 % 1033,9 hPa 0,0 l/m 0 min 0 min 0 W/m 6,4 km/h (2 Bft) 100,00 %
21.01.2022 21:00 4,2 C 3,9 C 2,2 C 97 % 1033,9 hPa 0,0 l/m 0 min 0 min 0 W/m 12,9 km/h (3 Bft) 100,00 %
21.01.2022 21:02 4,2 C 3,9 C 2,2 C 97 % 1033,9 hPa 0,0 l/m 0 min 0 min 0 W/m 12,9 km/h (3 Bft) 95,74 %
21.01.2022 21:04 4,2 C 3,9 C 2,2 C 97 % 1033,9 hPa 0,0 l/m 0 min 0 min 0 W/m 6,4 km/h (2 Bft) 100,00 %
21.01.2022 21:06 4,2 C 3,9 C 2,2 C 97 % 1033,8 hPa 0,0 l/m 0 min 0 min 0 W/m 6,4 km/h (2 Bft) 97,87 %
21.01.2022 21:08 4,2 C 3,9 C 2,2 C 97 % 1033,8 hPa 0,0 l/m 0 min 0 min 0 W/m 12,9 km/h (3 Bft) 98,18 %
21.01.2022 21:10 4,2 C 3,9 C 2,2 C 97 % 1033,8 hPa 0,0 l/m 0 min 0 min 0 W/m 12,9 km/h (3 Bft) 97,92 %
21.01.2022 21:12 4,2 C 3,9 C 2,2 C 97 % 1033,8 hPa 0,0 l/m 0 min 0 min 0 W/m 6,4 km/h (2 Bft) 94,74 %
21.01.2022 21:14 4,2 C 3,9 C 2,2 C 97 % 1033,8 hPa 0,0 l/m 0 min 0 min 0 W/m 12,9 km/h (3 Bft) 97,87 %
21.01.2022 21:16 4,2 C 3,9 C 2,2 C 97 % 1033,8 hPa 0,0 l/m 0 min 0 min 0 W/m 9,7 km/h (2 Bft) 93,48 %
21.01.2022 21:18 4,2 C 3,9 C 2,2 C 97 % 1033,8 hPa 0,0 l/m 0 min 0 min 0 W/m 9,7 km/h (2 Bft) 97,87 %
21.01.2022 21:20 4,2 C 3,9 C 2,2 C 97 % 1033,9 hPa 0,0 l/m 0 min 0 min 0 W/m 6,4 km/h (2 Bft) 98,15 %
21.01.2022 21:22 4,2 C 3,9 C 2,2 C 97 % 1033,9 hPa 0,0 l/m 0 min 0 min 0 W/m 12,9 km/h (3 Bft) 97,87 %
21.01.2022 21:24 4,2 C 3,9 C 2,2 C 97 % 1033,9 hPa 0,0 l/m 0 min 0 min 0 W/m 12,9 km/h (3 Bft) 93,62 %
21.01.2022 21:26 4,2 C 3,9 C 2,2 C 97 % 1034,0 hPa 0,0 l/m 0 min 0 min 0 W/m 6,4 km/h (2 Bft) 95,83 %
21.01.2022 21:28 4,2 C 3,9 C 2,2 C 97 % 1033,9 hPa 0,0 l/m 0 min 0 min 0 W/m 6,4 km/h (2 Bft) 95,92 %
21.01.2022 21:30 4,2 C 3,9 C 2,2 C 97 % 1033,9 hPa 0,0 l/m 0 min 0 min 0 W/m 16,1 km/h (3 Bft) 94,44 %
21.01.2022 21:32 4,2 C 3,9 C 2,2 C 97 % 1033,9 hPa 0,0 l/m 0 min 0 min 0 W/m 9,7 km/h (2 Bft) 97,87 %
21.01.2022 21:34 4,2 C 3,9 C 2,2 C 97 % 1034,0 hPa 0,0 l/m 0 min 0 min 0 W/m 19,3 km/h (3 Bft) 95,74 %
21.01.2022 21:36 4,2 C 3,9 C 2,2 C 97 % 1033,9 hPa 0,0 l/m 0 min 0 min 0 W/m 12,9 km/h (3 Bft) 96,23 %
21.01.2022 21:38 4,2 C 3,9 C 2,2 C 97 % 1034,0 hPa 0,0 l/m 0 min 0 min 0 W/m 12,9 km/h (3 Bft) 95,74 %
21.01.2022 21:40 4,2 C 3,9 C 2,2 C 97 % 1034,0 hPa 0,0 l/m 0 min 0 min 0 W/m 16,1 km/h (3 Bft) 95,83 %
21.01.2022 21:42 4,2 C 3,9 C 2,2 C 97 % 1034,0 hPa 0,0 l/m 0 min 0 min 0 W/m 16,1 km/h (3 Bft) 95,74 %
21.01.2022 21:44 4,2 C 3,9 C 2,2 C 97 % 1034,0 hPa 0,0 l/m 0 min 0 min 0 W/m 12,9 km/h (3 Bft) 95,83 %
21.01.2022 21:46 4,2 C 3,3 C 2,2 C 97 % 1034,1 hPa 0,0 l/m 0 min 0 min 0 W/m 19,3 km/h (3 Bft) 95,83 %
21.01.2022 21:48 4,2 C 3,3 C 2,2 C 97 % 1034,0 hPa 0,0 l/m 0 min 0 min 0 W/m 19,3 km/h (3 Bft) 95,74 %
21.01.2022 21:50 4,2 C 3,3 C 2,2 C 97 % 1033,9 hPa 0,0 l/m 0 min 0 min 0 W/m 6,4 km/h (2 Bft) 94,44 %
21.01.2022 21:52 4,2 C 3,3 C 2,2 C 97 % 1033,9 hPa 0,0 l/m 0 min 0 min 0 W/m 12,9 km/h (3 Bft) 100,00 %
21.01.2022 21:54 4,2 C 3,3 C 2,2 C 97 % 1033,7 hPa 0,0 l/m 0 min 0 min 0 W/m 16,1 km/h (3 Bft) 97,87 %
21.01.2022 21:56 4,1 C 3,3 C 2,2 C 97 % 1033,7 hPa 0,0 l/m 0 min 0 min 0 W/m 19,3 km/h (3 Bft) 97,87 %
21.01.2022 21:58 4,1 C 3,3 C 2,2 C 97 % 1033,7 hPa 0,0 l/m 0 min 0 min 0 W/m 9,7 km/h (2 Bft) 97,87 %
21.01.2022 22:00 4,1 C 3,3 C 2,2 C 97 % 1033,8 hPa 0,0 l/m 0 min 0 min 0 W/m 16,1 km/h (3 Bft) 100,00 %
21.01.2022 22:02 4,1 C 3,3 C 2,2 C 97 % 1033,8 hPa 0,0 l/m 0 min 0 min 0 W/m 12,9 km/h (3 Bft) 100,00 %
21.01.2022 22:04 4,1 C 3,3 C 2,2 C 97 % 1033,7 hPa 0,0 l/m 0 min 0 min 0 W/m 16,1 km/h (3 Bft) 100,00 %
21.01.2022 22:06 4,1 C 3,3 C 2,2 C 97 % 1033,8 hPa 0,0 l/m 0 min 0 min 0 W/m 12,9 km/h (3 Bft) 100,00 %
21.01.2022 22:08 4,1 C 3,3 C 2,2 C 97 % 1033,8 hPa 0,0 l/m 0 min 2 min 0 W/m 19,3 km/h (3 Bft) 100,00 %
21.01.2022 22:10 4,1 C 3,3 C 2,2 C 97 % 1033,7 hPa 0,0 l/m 0 min 0 min 0 W/m 9,7 km/h (2 Bft) 100,00 %
21.01.2022 22:12 4,1 C 3,3 C 2,2 C 97 % 1033,7 hPa 0,0 l/m 0 min 0 min 0 W/m 12,9 km/h (3 Bft) 100,00 %
21.01.2022 22:14 4,1 C 3,3 C 2,2 C 97 % 1033,7 hPa 0,0 l/m 0 min 0 min 0 W/m 12,9 km/h (3 Bft) 100,00 %
21.01.2022 22:16 4,1 C 3,3 C 2,2 C 97 % 1033,7 hPa 0,0 l/m 0 min 0 min 0 W/m 16,1 km/h (3 Bft) 100,00 %
21.01.2022 22:18 4,1 C 3,3 C 2,2 C 97 % 1033,7 hPa 0,0 l/m 0 min 0 min 0 W/m 9,7 km/h (2 Bft) 100,00 %
21.01.2022 22:20 4,1 C 3,3 C 2,2 C 97 % 1033,6 hPa 0,0 l/m 0 min 0 min 0 W/m 9,7 km/h (2 Bft) 100,00 %
21.01.2022 22:22 4,1 C 3,3 C 2,2 C 97 % 1033,7 hPa 0,0 l/m 0 min 0 min 0 W/m 6,4 km/h (2 Bft) 97,83 %
21.01.2022 22:24 4,0 C 3,3 C 2,2 C 97 % 1033,6 hPa 0,0 l/m 0 min 0 min 0 W/m 6,4 km/h (2 Bft) 97,92 %
21.01.2022 22:26 4,0 C 3,3 C 2,2 C 97 % 1033,7 hPa 0,0 l/m 0 min 0 min 0 W/m 6,4 km/h (2 Bft) 97,92 %
21.01.2022 22:28 4,0 C 3,3 C 2,2 C 97 % 1033,7 hPa 0,0 l/m 0 min 0 min 0 W/m 9,7 km/h (2 Bft) 97,87 %
21.01.2022 22:30 4,0 C 3,3 C 2,2 C 97 % 1033,7 hPa 0,0 l/m 0 min 0 min 0 W/m 12,9 km/h (3 Bft) 93,75 %
21.01.2022 22:32 4,0 C 3,3 C 2,2 C 97 % 1033,7 hPa 0,0 l/m 0 min 0 min 0 W/m 6,4 km/h (2 Bft) 100,00 %
21.01.2022 22:34 4,0 C 3,3 C 2,2 C 97 % 1033,8 hPa 0,0 l/m 0 min 0 min 0 W/m 6,4 km/h (2 Bft) 97,87 %
21.01.2022 22:36 4,0 C 3,3 C 2,2 C 97 % 1033,7 hPa 0,0 l/m 0 min 0 min 0 W/m 16,1 km/h (3 Bft) 95,65 %
21.01.2022 22:38 4,0 C 3,3 C 2,2 C 97 % 1033,8 hPa 0,0 l/m 0 min 0 min 0 W/m 16,1 km/h (3 Bft) 97,87 %
21.01.2022 22:40 3,9 C 3,3 C 2,2 C 97 % 1033,8 hPa 0,0 l/m 0 min 0 min 0 W/m 6,4 km/h (2 Bft) 97,87 %
21.01.2022 22:42 3,9 C 3,3 C 2,2 C 97 % 1033,7 hPa 0,0 l/m 0 min 0 min 0 W/m 16,1 km/h (3 Bft) 97,87 %
21.01.2022 22:44 3,9 C 3,3 C 2,2 C 97 % 1033,7 hPa 0,0 l/m 0 min 0 min 0 W/m 16,1 km/h (3 Bft) 98,15 %
21.01.2022 22:46 3,9 C 3,3 C 2,2 C 97 % 1033,6 hPa 0,0 l/m 0 min 0 min 0 W/m 6,4 km/h (2 Bft) 95,74 %
21.01.2022 22:48 3,9 C 3,3 C 2,2 C 97 % 1033,6 hPa 0,0 l/m 0 min 0 min 0 W/m 9,7 km/h (2 Bft) 97,92 %
21.01.2022 22:50 3,9 C 3,3 C 2,2 C 97 % 1033,6 hPa 0,0 l/m 0 min 0 min 0 W/m 9,7 km/h (2 Bft) 95,83 %
21.01.2022 22:52 3,9 C 3,3 C 2,2 C 97 % 1033,7 hPa 0,0 l/m 0 min 0 min 0 W/m 16,1 km/h (3 Bft) 97,92 %
21.01.2022 22:54 3,9 C 3,3 C 2,2 C 97 % 1033,6 hPa 0,0 l/m 0 min 0 min 0 W/m 16,1 km/h (3 Bft) 97,22 %
21.01.2022 22:56 3,9 C 3,3 C 2,2 C 97 % 1033,6 hPa 0,0 l/m 0 min 0 min 0 W/m 12,9 km/h (3 Bft) 97,87 %
21.01.2022 22:58 3,9 C 3,3 C 2,2 C 97 % 1033,6 hPa 0,0 l/m 0 min 0 min 0 W/m 16,1 km/h (3 Bft) 97,87 %
21.01.2022 23:00 3,9 C 3,3 C 2,2 C 97 % 1033,5 hPa 0,0 l/m 0 min 0 min 0 W/m 6,4 km/h (2 Bft) 95,65 %
21.01.2022 23:02 3,8 C 3,3 C 2,2 C 97 % 1033,6 hPa 0,0 l/m 0 min 0 min 0 W/m 12,9 km/h (3 Bft) 96,00 %
21.01.2022 23:04 3,8 C 3,3 C 2,2 C 97 % 1033,6 hPa 0,0 l/m 0 min 0 min 0 W/m 12,9 km/h (3 Bft) 95,74 %
21.01.2022 23:06 3,8 C 3,3 C 2,2 C 97 % 1033,5 hPa 0,0 l/m 0 min 0 min 0 W/m 9,7 km/h (2 Bft) 97,87 %
21.01.2022 23:08 3,8 C 3,3 C 2,2 C 97 % 1033,5 hPa 0,0 l/m 0 min 0 min 0 W/m 16,1 km/h (3 Bft) 95,74 %
21.01.2022 23:10 3,8 C 3,3 C 2,2 C 97 % 1033,5 hPa 0,0 l/m 0 min 0 min 0 W/m 12,9 km/h (3 Bft) 97,83 %
21.01.2022 23:12 3,8 C 3,3 C 2,2 C 97 % 1033,5 hPa 0,0 l/m 0 min 0 min 0 W/m 9,7 km/h (2 Bft) 98,15 %
21.01.2022 23:14 3,8 C 3,3 C 2,2 C 97 % 1033,4 hPa 0,0 l/m 0 min 0 min 0 W/m 16,1 km/h (3 Bft) 97,92 %
21.01.2022 23:16 3,8 C 3,3 C 2,2 C 97 % 1033,5 hPa 0,0 l/m 0 min 0 min 0 W/m 6,4 km/h (2 Bft) 100,00 %
21.01.2022 23:18 3,8 C 3,3 C 2,2 C 97 % 1033,5 hPa 0,0 l/m 0 min 0 min 0 W/m 12,9 km/h (3 Bft) 95,83 %
21.01.2022 23:20 3,8 C 3,3 C 2,2 C 97 % 1033,5 hPa 0,0 l/m 0 min 0 min 0 W/m 12,9 km/h (3 Bft) 100,00 %
21.01.2022 23:22 3,8 C 3,3 C 2,2 C 97 % 1033,5 hPa 0,0 l/m 0 min 0 min 0 W/m 19,3 km/h (3 Bft) 100,00 %
21.01.2022 23:24 3,8 C 3,3 C 2,2 C 97 % 1033,5 hPa 0,0 l/m 0 min 0 min 0 W/m 16,1 km/h (3 Bft) 97,92 %
21.01.2022 23:26 3,8 C 3,3 C 2,2 C 97 % 1033,5 hPa 0,0 l/m 0 min 0 min 0 W/m 12,9 km/h (3 Bft) 95,83 %
21.01.2022 23:28 3,8 C 3,3 C 2,2 C 97 % 1033,6 hPa 0,0 l/m 0 min 0 min 0 W/m 9,7 km/h (2 Bft) 97,87 %
21.01.2022 23:30 3,8 C 3,3 C 2,2 C 97 % 1033,5 hPa 0,0 l/m 0 min 0 min 0 W/m 16,1 km/h (3 Bft) 95,83 %
21.01.2022 23:32 3,8 C 3,3 C 2,2 C 97 % 1033,5 hPa 0,0 l/m 0 min 0 min 0 W/m 12,9 km/h (3 Bft) 97,87 %
21.01.2022 23:34 3,8 C 3,3 C 2,2 C 97 % 1033,5 hPa 0,0 l/m 0 min 0 min 0 W/m 25,7 km/h (4 Bft) 97,14 %
21.01.2022 23:36 3,8 C 3,3 C 2,2 C 97 % 1033,5 hPa 0,0 l/m 0 min 0 min 0 W/m 12,9 km/h (3 Bft) 98,11 %
21.01.2022 23:38 3,8 C 3,3 C 2,2 C 97 % 1033,6 hPa 0,0 l/m 0 min 0 min 0 W/m 12,9 km/h (3 Bft) 97,92 %
21.01.2022 23:40 3,8 C 3,3 C 2,2 C 97 % 1033,5 hPa 0,0 l/m 0 min 0 min 0 W/m 12,9 km/h (3 Bft) 93,75 %
21.01.2022 23:42 3,8 C 3,3 C 2,2 C 97 % 1033,5 hPa 0,0 l/m 0 min 0 min 0 W/m 16,1 km/h (3 Bft) 93,62 %
21.01.2022 23:44 3,8 C 3,3 C 2,2 C 97 % 1033,5 hPa 0,0 l/m 0 min 0 min 0 W/m 16,1 km/h (3 Bft) 95,74 %
21.01.2022 23:46 3,8 C 3,3 C 2,2 C 97 % 1033,5 hPa 0,0 l/m 0 min 0 min 0 W/m 12,9 km/h (3 Bft) 97,92 %
21.01.2022 23:48 3,8 C 3,3 C 2,2 C 97 % 1033,5 hPa 0,0 l/m 0 min 0 min 0 W/m 16,1 km/h (3 Bft) 95,83 %
21.01.2022 23:50 3,8 C 3,3 C 2,2 C 97 % 1033,5 hPa 0,0 l/m 0 min 0 min 0 W/m 16,1 km/h (3 Bft) 95,74 %
21.01.2022 23:52 3,8 C 3,3 C 2,2 C 97 % 1033,4 hPa 0,0 l/m 0 min 0 min 0 W/m 16,1 km/h (3 Bft) 95,74 %
21.01.2022 23:54 3,8 C 3,3 C 2,2 C 97 % 1033,4 hPa 0,0 l/m 0 min 0 min 0 W/m 12,9 km/h (3 Bft) 95,74 %
21.01.2022 23:56 3,7 C 3,3 C 2,2 C 97 % 1033,5 hPa 0,0 l/m 0 min 0 min 0 W/m 6,4 km/h (2 Bft) 97,14 %
21.01.2022 23:58 3,7 C 3,3 C 2,2 C 97 % 1033,4 hPa 0,0 l/m 0 min 0 min 0 W/m 16,1 km/h (3 Bft) 98,11 %
_ Min-Zeit 07:16 01:54 00:00 13:28 00:00 - - - - 06:54 04:10
Minimum _ -0,3 C -1,1 C -2,2 C 90 % 1032,5 hPa - - - - 0,0 km/h (0 Bft) 47,37 %
_ Max-Zeit 13:20 13:12 13:16 10:26 11:22 10:14 09:56 14:36 10:46 23:34 00:40
Maximum _ 5,2 C 8,3 C 3,9 C 98 % 1034,9 hPa 0,2 l/m 2 min 2 min 274 W/m 25,7 km/h
S-SO (4 Bft)
100,00 %
Durchschnitt _ 2,5 C 2,1 C 0,6 C 96 % 1033,7 hPa #0,2 l/m #1:20 h #18 min. 87 W/m 8,8 km/h (2 Bft) 97,11 %
© 2022 W. Hausmann